Observation data for Van Horn on 08/12/2019      Previous  Date  Next       Current Mesonet Observations  Soil Data  Daily Summary Page  Observations in Plain Language
KVA1 120500Z 28005KT 29/13 A3007 RMK A01 T02890133  RH  038%=      5-min Rain = 0
KVA1 120501Z 27005KT 29/13 A3007 RMK A01 T02880133  RH  038%=      5-min Rain = 0
KVA1 120502Z 27005KT 29/13 A3007 RMK A01 T02880133  RH  038%=      5-min Rain = 0
KVA1 120503Z 28005KT 29/13 A3007 RMK A01 T02880133  RH  038%=      5-min Rain = 0
KVA1 120504Z 27005KT 29/13 A3007 RMK A01 T02880133  RH  038%=      5-min Rain = 0
KVA1 120505Z 27005KT 29/13 A3007 RMK A01 T02880133  RH  038%=      5-min Rain = 0
KVA1 120506Z 27005KT 29/13 A3007 RMK A01 T02880133  RH  039%=      5-min Rain = 0
KVA1 120507Z 27005KT 29/13 A3007 RMK A01 T02880133  RH  039%=      5-min Rain = 0
KVA1 120508Z 27005KT 29/13 A3007 RMK A01 T02880133  RH  039%=      5-min Rain = 0
KVA1 120509Z 27005KT 29/13 A3007 RMK A01 T02870133  RH  039%=      5-min Rain = 0
KVA1 120510Z 26005KT 29/13 A3007 RMK A01 T02870133  RH  039%=      5-min Rain = 0
KVA1 120511Z 26006KT 29/13 A3007 RMK A01 T02860134  RH  039%=      5-min Rain = 0
KVA1 120512Z 26006KT 29/14 A3007 RMK A01 T02860135  RH  039%=      5-min Rain = 0
KVA1 120513Z 26006KT 29/14 A3007 RMK A01 T02860135  RH  039%=      5-min Rain = 0
KVA1 120514Z 26005KT 29/14 A3007 RMK A01 T02860135  RH  039%=      5-min Rain = 0
KVA1 120515Z 26006KT 29/14 A3007 RMK A01 T02860135  RH  039%=      5-min Rain = 0
KVA1 120516Z 27006KT 29/14 A3007 RMK A01 T02870136  RH  040%=      5-min Rain = 0
KVA1 120517Z 27006KT 29/14 A3007 RMK A01 T02860136  RH  040%=      5-min Rain = 0
KVA1 120518Z 27005KT 29/14 A3007 RMK A01 T02870136  RH  040%=      5-min Rain = 0
KVA1 120519Z 27004KT 29/14 A3007 RMK A01 T02870136  RH  040%=      5-min Rain = 0
KVA1 120520Z 27004KT 29/14 A3007 RMK A01 T02870136  RH  040%=      5-min Rain = 0
KVA1 120521Z 27003KT 29/14 A3007 RMK A01 T02870136  RH  040%=      5-min Rain = 0
KVA1 120522Z 27004KT 29/14 A3007 RMK A01 T02870136  RH  040%=      5-min Rain = 0
KVA1 120523Z 27004KT 29/14 A3007 RMK A01 T02860136  RH  040%=      5-min Rain = 0
KVA1 120524Z 27004KT 29/14 A3007 RMK A01 T02860136  RH  040%=      5-min Rain = 0
KVA1 120525Z 27005KT 29/14 A3007 RMK A01 T02860136  RH  040%=      5-min Rain = 0
KVA1 120526Z 27005KT 29/14 A3007 RMK A01 T02860136  RH  040%=      5-min Rain = 0
KVA1 120527Z 27004KT 29/14 A3007 RMK A01 T02860136  RH  040%=      5-min Rain = 0
KVA1 120528Z 29003KT 29/14 A3007 RMK A01 T02860137  RH  040%=      5-min Rain = 0
KVA1 120529Z 28003KT 29/14 A3007 RMK A01 T02860137  RH  040%=      5-min Rain = 0
KVA1 120530Z 27003KT 29/14 A3007 RMK A01 T02860135  RH  040%=      5-min Rain = 0
KVA1 120531Z 27002KT 29/14 A3007 RMK A01 T02880137  RH  039%=      5-min Rain = 0
KVA1 120532Z 30003KT 29/14 A3007 RMK A01 T02900137  RH  039%=      5-min Rain = 0
KVA1 120533Z 29004KT 29/14 A3007 RMK A01 T02890137  RH  039%=      5-min Rain = 0
KVA1 120534Z 28005KT 29/14 A3007 RMK A01 T02880137  RH  040%=      5-min Rain = 0
KVA1 120535Z 27004KT 29/14 A3007 RMK A01 T02860137  RH  040%=      5-min Rain = 0
KVA1 120536Z 27005KT 29/14 A3007 RMK A01 T02860138  RH  040%=      5-min Rain = 0
KVA1 120537Z 28004KT 29/14 A3007 RMK A01 T02860138  RH  040%=      5-min Rain = 0
KVA1 120538Z 28004KT 29/14 A3007 RMK A01 T02860138  RH  040%=      5-min Rain = 0
KVA1 120539Z 27005KT 29/14 A3007 RMK A01 T02850138  RH  040%=      5-min Rain = 0
KVA1 120540Z 27004KT 28/14 A3007 RMK A01 T02840138  RH  041%=      5-min Rain = 0
KVA1 120541Z 29004KT 28/14 A3007 RMK A01 T02830138  RH  041%=      5-min Rain = 0
KVA1 120542Z 27004KT 28/14 A3007 RMK A01 T02840139  RH  041%=      5-min Rain = 0
KVA1 120543Z 27003KT 28/14 A3007 RMK A01 T02840138  RH  041%=      5-min Rain = 0
KVA1 120544Z 27003KT 29/14 A3007 RMK A01 T02850139  RH  041%=      5-min Rain = 0
KVA1 120545Z 28004KT 29/14 A3007 RMK A01 T02850138  RH  041%=      5-min Rain = 0
KVA1 120546Z 27004KT 28/14 A3007 RMK A01 T02840138  RH  041%=      5-min Rain = 0
KVA1 120547Z 28004KT 28/14 A3007 RMK A01 T02840139  RH  041%=      5-min Rain = 0
KVA1 120548Z 28004KT 28/14 A3008 RMK A01 T02840139  RH  041%=      5-min Rain = 0
KVA1 120549Z 27004KT 28/14 A3007 RMK A01 T02830139  RH  041%=      5-min Rain = 0
KVA1 120550Z 28004KT 28/14 A3008 RMK A01 T02820140  RH  042%=      5-min Rain = 0
KVA1 120551Z 28004KT 28/14 A3008 RMK A01 T02830140  RH  042%=      5-min Rain = 0
KVA1 120552Z 29003KT 28/14 A3008 RMK A01 T02830140  RH  042%=      5-min Rain = 0
KVA1 120553Z 27004KT 28/14 A3008 RMK A01 T02830140  RH  042%=      5-min Rain = 0
KVA1 120554Z 26004KT 28/14 A3008 RMK A01 T02830141  RH  042%=      5-min Rain = 0
KVA1 120555Z 27004KT 28/14 A3008 RMK A01 T02840141  RH  041%=      5-min Rain = 0
KVA1 120556Z 27004KT 28/14 A3008 RMK A01 T02830140  RH  041%=      5-min Rain = 0
KVA1 120557Z 27004KT 28/14 A3008 RMK A01 T02830140  RH  042%=      5-min Rain = 0
KVA1 120558Z 27004KT 28/14 A3008 RMK A01 T02820140  RH  042%=      5-min Rain = 0
KVA1 120559Z 27004KT 28/14 A3008 RMK A01 T02820140  RH  042%=      5-min Rain = 0
KVA1 120600Z 27003KT 28/14 A3008 RMK A01 T02820141  RH  042%=      5-min Rain = 0
KVA1 120601Z 27003KT 28/14 A3008 RMK A01 T02820141  RH  042%=      5-min Rain = 0
KVA1 120602Z 28003KT 28/14 A3008 RMK A01 T02820140  RH  042%=      5-min Rain = 0
KVA1 120603Z 27004KT 28/14 A3008 RMK A01 T02820140  RH  042%=      5-min Rain = 0
KVA1 120604Z 27003KT 28/14 A3008 RMK A01 T02810140  RH  042%=      5-min Rain = 0
KVA1 120605Z 27003KT 28/14 A3008 RMK A01 T02810140  RH  042%=      5-min Rain = 0
KVA1 120606Z 26004KT 28/14 A3008 RMK A01 T02810140  RH  042%=      5-min Rain = 0
KVA1 120607Z 26002KT 28/14 A3008 RMK A01 T02800140  RH  042%=      5-min Rain = 0
KVA1 120608Z 25001KT 28/14 A3008 RMK A01 T02810139  RH  042%=      5-min Rain = 0
KVA1 120609Z 07002KT 28/14 A3008 RMK A01 T02790138  RH  042%=      5-min Rain = 0
KVA1 120610Z 08003KT 28/14 A3008 RMK A01 T02770137  RH  042%=      5-min Rain = 0
KVA1 120611Z 08003KT 28/14 A3008 RMK A01 T02760136  RH  042%=      5-min Rain = 0
KVA1 120612Z 07003KT 28/14 A3008 RMK A01 T02750135  RH  042%=      5-min Rain = 0
KVA1 120613Z 06002KT 27/14 A3008 RMK A01 T02740135  RH  042%=      5-min Rain = 0
KVA1 120614Z 07001KT 27/14 A3008 RMK A01 T02730135  RH  043%=      5-min Rain = 0
KVA1 120615Z 10001KT 27/14 A3008 RMK A01 T02730136  RH  043%=      5-min Rain = 0
KVA1 120616Z 12002KT 28/14 A3007 RMK A01 T02750136  RH  042%=      5-min Rain = 0
KVA1 120617Z 14002KT 28/14 A3007 RMK A01 T02760135  RH  042%=      5-min Rain = 0
KVA1 120618Z 14002KT 28/14 A3007 RMK A01 T02760136  RH  042%=      5-min Rain = 0
KVA1 120619Z 14003KT 28/14 A3007 RMK A01 T02760136  RH  042%=      5-min Rain = 0
KVA1 120620Z 14003KT 28/14 A3007 RMK A01 T02750137  RH  043%=      5-min Rain = 0
KVA1 120621Z 14002KT 28/14 A3007 RMK A01 T02750138  RH  043%=      5-min Rain = 0
KVA1 120622Z 15001KT 28/14 A3007 RMK A01 T02770139  RH  043%=      5-min Rain = 0
KVA1 120623Z 16001KT 28/14 A3007 RMK A01 T02780139  RH  042%=      5-min Rain = 0
KVA1 120624Z 16001KT 28/14 A3007 RMK A01 T02790139  RH  042%=      5-min Rain = 0
KVA1 120625Z 14002KT 28/14 A3007 RMK A01 T02800140  RH  042%=      5-min Rain = 0
KVA1 120626Z 14004KT 28/14 A3007 RMK A01 T02820140  RH  042%=      5-min Rain = 0
KVA1 120627Z 14004KT 28/14 A3007 RMK A01 T02830139  RH  041%=      5-min Rain = 0
KVA1 120628Z 15004KT 28/14 A3007 RMK A01 T02840139  RH  041%=      5-min Rain = 0
KVA1 120629Z 22003KT 28/14 A3007 RMK A01 T02820138  RH  041%=      5-min Rain = 0
KVA1 120630Z 21004KT 28/14 A3007 RMK A01 T02800137  RH  041%=      5-min Rain = 0
KVA1 120631Z 20004KT 28/14 A3007 RMK A01 T02790139  RH  042%=      5-min Rain = 0
KVA1 120632Z 18004KT 28/14 A3007 RMK A01 T02800139  RH  042%=      5-min Rain = 0
KVA1 120633Z 18003KT 28/14 A3007 RMK A01 T02820140  RH  042%=      5-min Rain = 0
KVA1 120634Z 19003KT 28/14 A3007 RMK A01 T02820139  RH  041%=      5-min Rain = 0
KVA1 120635Z 20002KT 28/14 A3007 RMK A01 T02820139  RH  041%=      5-min Rain = 0
KVA1 120636Z 20002KT 28/14 A3007 RMK A01 T02830139  RH  041%=      5-min Rain = 0
KVA1 120637Z 20003KT 28/14 A3007 RMK A01 T02830139  RH  041%=      5-min Rain = 0
KVA1 120638Z 19003KT 28/14 A3007 RMK A01 T02820139  RH  041%=      5-min Rain = 0
KVA1 120639Z 19003KT 28/14 A3007 RMK A01 T02810139  RH  042%=      5-min Rain = 0
KVA1 120640Z 21003KT 28/14 A3007 RMK A01 T02800138  RH  042%=      5-min Rain = 0
KVA1 120641Z 22002KT 28/14 A3007 RMK A01 T02790138  RH  042%=      5-min Rain = 0
KVA1 120642Z 23001KT 28/14 A3007 RMK A01 T02770137  RH  042%=      5-min Rain = 0
KVA1 120643Z 20001KT 28/14 A3007 RMK A01 T02760138  RH  042%=      5-min Rain = 0
KVA1 120644Z 20000KT 28/14 A3007 RMK A01 T02770138  RH  042%=      5-min Rain = 0
KVA1 120645Z 00000KT 28/14 A3007 RMK A01 T02760137  RH  042%=      5-min Rain = 0
KVA1 120646Z 00000KT 28/14 A3007 RMK A01 T02760138  RH  043%=      5-min Rain = 0
KVA1 120647Z 00000KT 28/14 A3007 RMK A01 T02760137  RH  042%=      5-min Rain = 0
KVA1 120648Z 17001KT 28/14 A3007 RMK A01 T02750137  RH  043%=      5-min Rain = 0
KVA1 120649Z 18001KT 28/14 A3007 RMK A01 T02750137  RH  043%=      5-min Rain = 0
KVA1 120650Z 20001KT 27/14 A3007 RMK A01 T02740137  RH  043%=      5-min Rain = 0
KVA1 120651Z 14001KT 28/14 A3007 RMK A01 T02750139  RH  043%=      5-min Rain = 0
KVA1 120652Z 16001KT 28/14 A3007 RMK A01 T02760138  RH  043%=      5-min Rain = 0
KVA1 120653Z 16001KT 28/14 A3007 RMK A01 T02770137  RH  042%=      5-min Rain = 0
KVA1 120654Z 14000KT 28/14 A3007 RMK A01 T02760135  RH  042%=      5-min Rain = 0
KVA1 120655Z 08001KT 28/14 A3007 RMK A01 T02750137  RH  043%=      5-min Rain = 0
KVA1 120656Z 09001KT 27/14 A3007 RMK A01 T02740138  RH  043%=      5-min Rain = 0
KVA1 120657Z 10002KT 27/14 A3007 RMK A01 T02740137  RH  043%=      5-min Rain = 0
KVA1 120658Z 12001KT 28/14 A3007 RMK A01 T02750137  RH  043%=      5-min Rain = 0
KVA1 120659Z 12001KT 28/14 A3007 RMK A01 T02750137  RH  043%=      5-min Rain = 0
KVA1 120700Z 10002KT 28/14 A3007 RMK A01 T02760138  RH  043%=      5-min Rain = 0
KVA1 120701Z 09001KT 28/14 A3007 RMK A01 T02770136  RH  042%=      5-min Rain = 0
KVA1 120702Z 05002KT 28/14 A3007 RMK A01 T02770135  RH  042%=      5-min Rain = 0
KVA1 120703Z 03003KT 28/14 A3007 RMK A01 T02760136  RH  042%=      5-min Rain = 0
KVA1 120704Z 04001KT 28/14 A3007 RMK A01 T02750136  RH  042%=      5-min Rain = 0
KVA1 120705Z 09003KT 28/14 A3007 RMK A01 T02750135  RH  042%=      5-min Rain = 0
KVA1 120706Z 10004KT 28/14 A3007 RMK A01 T02750135  RH  042%=      5-min Rain = 0
KVA1 120707Z 09005KT 28/14 A3006 RMK A01 T02750135  RH  042%=      5-min Rain = 0
KVA1 120708Z 09004KT 28/14 A3006 RMK A01 T02750136  RH  042%=      5-min Rain = 0
KVA1 120709Z 10004KT 28/14 A3006 RMK A01 T02760136  RH  042%=      5-min Rain = 0
KVA1 120710Z 10003KT 28/14 A3006 RMK A01 T02750136  RH  042%=      5-min Rain = 0
KVA1 120711Z 10003KT 27/14 A3007 RMK A01 T02740136  RH  043%=      5-min Rain = 0
KVA1 120712Z 07004KT 27/14 A3007 RMK A01 T02730136  RH  043%=      5-min Rain = 0
KVA1 120713Z 06003KT 27/14 A3007 RMK A01 T02720136  RH  043%=      5-min Rain = 0
KVA1 120714Z 07003KT 27/14 A3007 RMK A01 T02700135  RH  043%=      5-min Rain = 0
KVA1 120715Z 06002KT 27/14 A3007 RMK A01 T02690135  RH  044%=      5-min Rain = 0
KVA1 120716Z 04001KT 27/13 A3007 RMK A01 T02680134  RH  044%=      5-min Rain = 0
KVA1 120717Z 05001KT 27/13 A3007 RMK A01 T02660133  RH  044%=      5-min Rain = 0
KVA1 120718Z 06001KT 27/13 A3007 RMK A01 T02650133  RH  044%=      5-min Rain = 0
KVA1 120719Z 06000KT 26/13 A3007 RMK A01 T02640133  RH  044%=      5-min Rain = 0
KVA1 120720Z 18001KT 26/13 A3007 RMK A01 T02630134  RH  045%=      5-min Rain = 0
KVA1 120721Z 18002KT 26/13 A3007 RMK A01 T02630134  RH  045%=      5-min Rain = 0
KVA1 120722Z 18003KT 26/13 A3007 RMK A01 T02630134  RH  045%=      5-min Rain = 0
KVA1 120723Z 17003KT 26/13 A3007 RMK A01 T02630134  RH  045%=      5-min Rain = 0
KVA1 120724Z 15002KT 26/13 A3007 RMK A01 T02630134  RH  045%=      5-min Rain = 0
KVA1 120725Z 14003KT 26/13 A3007 RMK A01 T02630134  RH  045%=      5-min Rain = 0
KVA1 120726Z 13003KT 26/13 A3006 RMK A01 T02630134  RH  045%=      5-min Rain = 0
KVA1 120727Z 12003KT 26/13 A3007 RMK A01 T02630134  RH  045%=      5-min Rain = 0
KVA1 120728Z 12003KT 26/13 A3007 RMK A01 T02630134  RH  045%=      5-min Rain = 0
KVA1 120729Z 11004KT 26/13 A3007 RMK A01 T02630134  RH  045%=      5-min Rain = 0
KVA1 120730Z 11004KT 26/13 A3007 RMK A01 T02630134  RH  045%=      5-min Rain = 0
KVA1 120731Z 11004KT 26/13 A3007 RMK A01 T02630134  RH  045%=      5-min Rain = 0
KVA1 120732Z 10004KT 26/13 A3007 RMK A01 T02620133  RH  045%=      5-min Rain = 0
KVA1 120733Z 10004KT 26/14 A3006 RMK A01 T02610135  RH  046%=      5-min Rain = 0
KVA1 120734Z 11004KT 26/13 A3007 RMK A01 T02600134  RH  046%=      5-min Rain = 0
KVA1 120735Z 11004KT 26/13 A3007 RMK A01 T02590133  RH  046%=      5-min Rain = 0
KVA1 120736Z 11003KT 26/13 A3007 RMK A01 T02580133  RH  046%=      5-min Rain = 0
KVA1 120737Z 12003KT 26/13 A3007 RMK A01 T02580133  RH  046%=      5-min Rain = 0
KVA1 120738Z 12002KT 26/13 A3007 RMK A01 T02570133  RH  046%=      5-min Rain = 0
KVA1 120739Z 14002KT 26/13 A3007 RMK A01 T02570134  RH  046%=      5-min Rain = 0
KVA1 120740Z 14001KT 26/13 A3007 RMK A01 T02570134  RH  046%=      5-min Rain = 0
KVA1 120741Z 21001KT 26/14 A3007 RMK A01 T02580135  RH  046%=      5-min Rain = 0
KVA1 120742Z 27002KT 26/13 A3007 RMK A01 T02590134  RH  046%=      5-min Rain = 0
KVA1 120743Z 31003KT 26/13 A3007 RMK A01 T02590134  RH  046%=      5-min Rain = 0
KVA1 120744Z 32001KT 26/13 A3007 RMK A01 T02580134  RH  046%=      5-min Rain = 0
KVA1 120745Z 30001KT 26/14 A3007 RMK A01 T02590135  RH  046%=      5-min Rain = 0
KVA1 120746Z 30001KT 26/14 A3007 RMK A01 T02600135  RH  046%=      5-min Rain = 0
KVA1 120747Z 34000KT 26/14 A3007 RMK A01 T02620135  RH  046%=      5-min Rain = 0
KVA1 120748Z 00000KT 26/14 A3007 RMK A01 T02620135  RH  045%=      5-min Rain = 0
KVA1 120749Z 00000KT 26/13 A3007 RMK A01 T02620134  RH  045%=      5-min Rain = 0
KVA1 120750Z 18000KT 26/14 A3007 RMK A01 T02610135  RH  046%=      5-min Rain = 0
KVA1 120751Z 00000KT 26/13 A3007 RMK A01 T02610133  RH  045%=      5-min Rain = 0
KVA1 120752Z 00000KT 26/14 A3007 RMK A01 T02610135  RH  046%=      5-min Rain = 0
KVA1 120753Z 00000KT 26/13 A3007 RMK A01 T02600132  RH  045%=      5-min Rain = 0
KVA1 120754Z 27000KT 26/13 A3007 RMK A01 T02590133  RH  046%=      5-min Rain = 0
KVA1 120755Z 26002KT 26/13 A3007 RMK A01 T02570132  RH  046%=      5-min Rain = 0
KVA1 120756Z 26002KT 26/13 A3007 RMK A01 T02550132  RH  046%=      5-min Rain = 0
KVA1 120757Z 27002KT 26/13 A3007 RMK A01 T02550133  RH  047%=      5-min Rain = 0
KVA1 120758Z 25002KT 26/13 A3007 RMK A01 T02550132  RH  047%=      5-min Rain = 0
KVA1 120759Z 23002KT 26/13 A3007 RMK A01 T02560134  RH  047%=      5-min Rain = 0
KVA1 120800Z 22002KT 26/13 A3007 RMK A01 T02580134  RH  046%=      5-min Rain = 0
KVA1 120801Z 22002KT 26/14 A3007 RMK A01 T02590135  RH  046%=      5-min Rain = 0
KVA1 120802Z 23004KT 26/13 A3007 RMK A01 T02610134  RH  045%=      5-min Rain = 0
KVA1 120803Z 23004KT 26/13 A3007 RMK A01 T02620134  RH  045%=      5-min Rain = 0
KVA1 120804Z 25004KT 26/13 A3007 RMK A01 T02640134  RH  045%=      5-min Rain = 0
KVA1 120805Z 26005KT 27/14 A3007 RMK A01 T02650135  RH  044%=      5-min Rain = 0
KVA1 120806Z 26005KT 27/13 A3007 RMK A01 T02650134  RH  044%=      5-min Rain = 0
KVA1 120807Z 25006KT 26/13 A3007 RMK A01 T02640133  RH  044%=      5-min Rain = 0
KVA1 120808Z 25006KT 26/13 A3006 RMK A01 T02630134  RH  045%=      5-min Rain = 0
KVA1 120809Z 25006KT 26/13 A3006 RMK A01 T02620133  RH  045%=      5-min Rain = 0
KVA1 120810Z 26006KT 26/13 A3006 RMK A01 T02620133  RH  045%=      5-min Rain = 0
KVA1 120811Z 25007KT 26/13 A3006 RMK A01 T02610133  RH  045%=      5-min Rain = 0
KVA1 120812Z 25007KT 26/13 A3006 RMK A01 T02610134  RH  045%=      5-min Rain = 0
KVA1 120813Z 25007KT 26/13 A3006 RMK A01 T02620134  RH  045%=      5-min Rain = 0
KVA1 120814Z 25006KT 26/14 A3006 RMK A01 T02620135  RH  045%=      5-min Rain = 0
KVA1 120815Z 25007KT 26/14 A3006 RMK A01 T02630135  RH  045%=      5-min Rain = 0
KVA1 120816Z 26007KT 26/14 A3006 RMK A01 T02630135  RH  045%=      5-min Rain = 0
KVA1 120817Z 26006KT 26/14 A3006 RMK A01 T02640135  RH  045%=      5-min Rain = 0
KVA1 120818Z 26007KT 27/14 A3006 RMK A01 T02650135  RH  045%=      5-min Rain = 0
KVA1 120819Z 26006KT 27/14 A3006 RMK A01 T02650135  RH  045%=      5-min Rain = 0
KVA1 120820Z 25006KT 27/14 A3006 RMK A01 T02660135  RH  044%=      5-min Rain = 0
KVA1 120821Z 25006KT 27/14 A3006 RMK A01 T02660135  RH  044%=      5-min Rain = 0
KVA1 120822Z 25006KT 27/14 A3006 RMK A01 T02670135  RH  044%=      5-min Rain = 0
KVA1 120823Z 25006KT 27/14 A3006 RMK A01 T02670135  RH  044%=      5-min Rain = 0
KVA1 120824Z 25006KT 27/14 A3006 RMK A01 T02670135  RH  044%=      5-min Rain = 0
KVA1 120825Z 25005KT 27/14 A3006 RMK A01 T02670135  RH  044%=      5-min Rain = 0
KVA1 120826Z 24004KT 27/14 A3006 RMK A01 T02670135  RH  044%=      5-min Rain = 0
KVA1 120827Z 24005KT 27/14 A3006 RMK A01 T02670135  RH  044%=      5-min Rain = 0
KVA1 120828Z 24005KT 27/14 A3006 RMK A01 T02670135  RH  044%=      5-min Rain = 0
KVA1 120829Z 24005KT 27/14 A3006 RMK A01 T02660135  RH  044%=      5-min Rain = 0
KVA1 120830Z 23005KT 27/13 A3006 RMK A01 T02660134  RH  044%=      5-min Rain = 0
KVA1 120831Z 24005KT 27/13 A3006 RMK A01 T02650134  RH  044%=      5-min Rain = 0
KVA1 120832Z 24005KT 27/13 A3006 RMK A01 T02650134  RH  044%=      5-min Rain = 0
KVA1 120833Z 24005KT 27/13 A3006 RMK A01 T02650134  RH  044%=      5-min Rain = 0
KVA1 120834Z 24004KT 26/13 A3006 RMK A01 T02640134  RH  045%=      5-min Rain = 0
KVA1 120835Z 24004KT 26/13 A3006 RMK A01 T02640134  RH  045%=      5-min Rain = 0
KVA1 120836Z 23005KT 26/13 A3006 RMK A01 T02630133  RH  045%=      5-min Rain = 0
KVA1 120837Z 24005KT 26/13 A3006 RMK A01 T02620134  RH  045%=      5-min Rain = 0
KVA1 120838Z 24005KT 26/13 A3006 RMK A01 T02620134  RH  045%=      5-min Rain = 0
KVA1 120839Z 24006KT 26/13 A3006 RMK A01 T02620134  RH  045%=      5-min Rain = 0
KVA1 120840Z 24006KT 26/13 A3006 RMK A01 T02620134  RH  045%=      5-min Rain = 0
KVA1 120841Z 24006KT 26/13 A3006 RMK A01 T02620134  RH  045%=      5-min Rain = 0
KVA1 120842Z 25006KT 26/13 A3006 RMK A01 T02610134  RH  045%=      5-min Rain = 0
KVA1 120843Z 24005KT 26/13 A3006 RMK A01 T02610134  RH  045%=      5-min Rain = 0
KVA1 120844Z 24005KT 26/13 A3006 RMK A01 T02600134  RH  046%=      5-min Rain = 0
KVA1 120845Z 23005KT 26/13 A3006 RMK A01 T02590134  RH  046%=      5-min Rain = 0
KVA1 120846Z 23006KT 26/13 A3006 RMK A01 T02590134  RH  046%=      5-min Rain = 0
KVA1 120847Z 23005KT 26/13 A3006 RMK A01 T02590134  RH  046%=      5-min Rain = 0
KVA1 120848Z 23006KT 26/13 A3006 RMK A01 T02590134  RH  046%=      5-min Rain = 0
KVA1 120849Z 22006KT 26/13 A3006 RMK A01 T02580134  RH  046%=      5-min Rain = 0
KVA1 120850Z 22006KT 26/13 A3006 RMK A01 T02580134  RH  046%=      5-min Rain = 0
KVA1 120851Z 22006KT 26/13 A3006 RMK A01 T02570133  RH  046%=      5-min Rain = 0
KVA1 120852Z 22006KT 26/13 A3006 RMK A01 T02560133  RH  046%=      5-min Rain = 0
KVA1 120853Z 22006KT 26/13 A3006 RMK A01 T02560133  RH  047%=      5-min Rain = 0
KVA1 120854Z 21006KT 26/13 A3006 RMK A01 T02550133  RH  047%=      5-min Rain = 0
KVA1 120855Z 21006KT 26/13 A3006 RMK A01 T02550133  RH  047%=      5-min Rain = 0
KVA1 120856Z 21006KT 25/13 A3006 RMK A01 T02540133  RH  047%=      5-min Rain = 0
KVA1 120857Z 22006KT 25/13 A3006 RMK A01 T02540133  RH  047%=      5-min Rain = 0
KVA1 120858Z 22006KT 25/13 A3006 RMK A01 T02530134  RH  048%=      5-min Rain = 0
KVA1 120859Z 22006KT 25/13 A3006 RMK A01 T02530134  RH  048%=      5-min Rain = 0
KVA1 120900Z 22006KT 25/13 A3005 RMK A01 T02530134  RH  048%=      5-min Rain = 0
KVA1 120901Z 22006KT 25/13 A3005 RMK A01 T02520134  RH  048%=      5-min Rain = 0
KVA1 120902Z 22006KT 25/14 A3006 RMK A01 T02530135  RH  048%=      5-min Rain = 0
KVA1 120903Z 23006KT 25/14 A3006 RMK A01 T02530135  RH  048%=      5-min Rain = 0
KVA1 120904Z 23007KT 25/13 A3006 RMK A01 T02530134  RH  048%=      5-min Rain = 0
KVA1 120905Z 23005KT 25/13 A3006 RMK A01 T02540134  RH  048%=      5-min Rain = 0
KVA1 120906Z 24006KT 25/13 A3006 RMK A01 T02540134  RH  047%=      5-min Rain = 0
KVA1 120907Z 23006KT 25/13 A3006 RMK A01 T02540134  RH  047%=      5-min Rain = 0
KVA1 120908Z 23006KT 26/13 A3006 RMK A01 T02550134  RH  047%=      5-min Rain = 0
KVA1 120909Z 24005KT 26/13 A3006 RMK A01 T02560134  RH  047%=      5-min Rain = 0
KVA1 120910Z 23006KT 26/13 A3006 RMK A01 T02560134  RH  047%=      5-min Rain = 0
KVA1 120911Z 23006KT 26/13 A3006 RMK A01 T02560134  RH  047%=      5-min Rain = 0
KVA1 120912Z 23006KT 26/13 A3006 RMK A01 T02560134  RH  047%=      5-min Rain = 0
KVA1 120913Z 24005KT 26/13 A3006 RMK A01 T02560134  RH  047%=      5-min Rain = 0
KVA1 120914Z 24006KT 26/13 A3005 RMK A01 T02570134  RH  047%=      5-min Rain = 0
KVA1 120915Z 24006KT 26/13 A3005 RMK A01 T02560134  RH  047%=      5-min Rain = 0
KVA1 120916Z 24006KT 26/14 A3005 RMK A01 T02570135  RH  047%=      5-min Rain = 0
KVA1 120917Z 24005KT 26/13 A3005 RMK A01 T02570134  RH  047%=      5-min Rain = 0
KVA1 120918Z 24005KT 26/13 A3005 RMK A01 T02570134  RH  047%=      5-min Rain = 0
KVA1 120919Z 24006KT 26/13 A3006 RMK A01 T02570134  RH  046%=      5-min Rain = 0
KVA1 120920Z 24007KT 26/13 A3006 RMK A01 T02570134  RH  046%=      5-min Rain = 0
KVA1 120921Z 24007KT 26/13 A3006 RMK A01 T02570133  RH  046%=      5-min Rain = 0
KVA1 120922Z 24006KT 26/13 A3006 RMK A01 T02580133  RH  046%=      5-min Rain = 0
KVA1 120923Z 24005KT 26/13 A3006 RMK A01 T02580133  RH  046%=      5-min Rain = 0
KVA1 120924Z 24006KT 26/13 A3006 RMK A01 T02580133  RH  046%=      5-min Rain = 0
KVA1 120925Z 24005KT 26/13 A3006 RMK A01 T02580133  RH  046%=      5-min Rain = 0
KVA1 120926Z 25005KT 26/13 A3006 RMK A01 T02580132  RH  046%=      5-min Rain = 0
KVA1 120927Z 24005KT 26/13 A3006 RMK A01 T02580133  RH  046%=      5-min Rain = 0
KVA1 120928Z 24005KT 26/13 A3006 RMK A01 T02570133  RH  046%=      5-min Rain = 0
KVA1 120929Z 24004KT 26/13 A3006 RMK A01 T02560132  RH  046%=      5-min Rain = 0
KVA1 120930Z 24004KT 26/13 A3006 RMK A01 T02570133  RH  046%=      5-min Rain = 0
KVA1 120931Z 24004KT 26/13 A3006 RMK A01 T02560132  RH  046%=      5-min Rain = 0
KVA1 120932Z 23005KT 26/13 A3006 RMK A01 T02560132  RH  046%=      5-min Rain = 0
KVA1 120933Z 22004KT 26/13 A3006 RMK A01 T02560132  RH  046%=      5-min Rain = 0
KVA1 120934Z 22004KT 26/13 A3006 RMK A01 T02560132  RH  046%=      5-min Rain = 0
KVA1 120935Z 21004KT 26/13 A3006 RMK A01 T02560132  RH  046%=      5-min Rain = 0
KVA1 120936Z 21004KT 26/13 A3006 RMK A01 T02550132  RH  046%=      5-min Rain = 0
KVA1 120937Z 21004KT 26/13 A3006 RMK A01 T02550132  RH  046%=      5-min Rain = 0
KVA1 120938Z 20004KT 26/13 A3006 RMK A01 T02550132  RH  046%=      5-min Rain = 0
KVA1 120939Z 19003KT 25/13 A3006 RMK A01 T02540131  RH  047%=      5-min Rain = 0
KVA1 120940Z 19004KT 25/13 A3006 RMK A01 T02530132  RH  047%=      5-min Rain = 0
KVA1 120941Z 19004KT 25/13 A3006 RMK A01 T02520133  RH  048%=      5-min Rain = 0
KVA1 120942Z 20004KT 25/13 A3006 RMK A01 T02500132  RH  048%=      5-min Rain = 0
KVA1 120943Z 20004KT 25/13 A3006 RMK A01 T02480133  RH  049%=      5-min Rain = 0
KVA1 120944Z 19004KT 25/13 A3006 RMK A01 T02470133  RH  049%=      5-min Rain = 0
KVA1 120945Z 20004KT 25/13 A3006 RMK A01 T02460133  RH  049%=      5-min Rain = 0
KVA1 120946Z 19005KT 25/13 A3006 RMK A01 T02450133  RH  050%=      5-min Rain = 0
KVA1 120947Z 19005KT 25/13 A3006 RMK A01 T02450134  RH  050%=      5-min Rain = 0
KVA1 120948Z 19005KT 25/13 A3006 RMK A01 T02450134  RH  050%=      5-min Rain = 0
KVA1 120949Z 19006KT 25/13 A3006 RMK A01 T02450134  RH  050%=      5-min Rain = 0
KVA1 120950Z 19005KT 25/13 A3006 RMK A01 T02450134  RH  050%=      5-min Rain = 0
KVA1 120951Z 19005KT 25/13 A3006 RMK A01 T02450133  RH  050%=      5-min Rain = 0
KVA1 120952Z 19005KT 25/13 A3006 RMK A01 T02450133  RH  050%=      5-min Rain = 0
KVA1 120953Z 19005KT 25/13 A3006 RMK A01 T02450133  RH  050%=      5-min Rain = 0
KVA1 120954Z 19005KT 25/13 A3006 RMK A01 T02450133  RH  050%=      5-min Rain = 0
KVA1 120955Z 19004KT 25/13 A3006 RMK A01 T02450133  RH  050%=      5-min Rain = 0
KVA1 120956Z 18005KT 24/13 A3006 RMK A01 T02440132  RH  050%=      5-min Rain = 0
KVA1 120957Z 18004KT 24/13 A3006 RMK A01 T02440132  RH  050%=      5-min Rain = 0
KVA1 120958Z 18004KT 24/13 A3006 RMK A01 T02430132  RH  050%=      5-min Rain = 0
KVA1 120959Z 18005KT 24/13 A3006 RMK A01 T02440132  RH  050%=      5-min Rain = 0
KVA1 121000Z 18005KT 24/13 A3006 RMK A01 T02430132  RH  050%=      5-min Rain = 0
KVA1 121001Z 18004KT 24/13 A3006 RMK A01 T02430132  RH  050%=      5-min Rain = 0
KVA1 121002Z 18004KT 24/13 A3006 RMK A01 T02430131  RH  050%=      5-min Rain = 0
KVA1 121003Z 19004KT 24/13 A3006 RMK A01 T02430131  RH  050%=      5-min Rain = 0
KVA1 121004Z 19004KT 24/13 A3006 RMK A01 T02430131  RH  050%=      5-min Rain = 0
KVA1 121005Z 18004KT 24/13 A3006 RMK A01 T02430131  RH  050%=      5-min Rain = 0
KVA1 121006Z 19004KT 24/13 A3006 RMK A01 T02430131  RH  049%=      5-min Rain = 0
KVA1 121007Z 19004KT 24/13 A3006 RMK A01 T02430131  RH  049%=      5-min Rain = 0
KVA1 121008Z 19004KT 24/13 A3006 RMK A01 T02430131  RH  049%=      5-min Rain = 0
KVA1 121009Z 19004KT 24/13 A3006 RMK A01 T02440131  RH  049%=      5-min Rain = 0
KVA1 121010Z 20003KT 24/13 A3006 RMK A01 T02440131  RH  049%=      5-min Rain = 0
KVA1 121011Z 19004KT 24/13 A3006 RMK A01 T02440131  RH  049%=      5-min Rain = 0
KVA1 121012Z 20003KT 24/13 A3006 RMK A01 T02440131  RH  049%=      5-min Rain = 0
KVA1 121013Z 21003KT 24/13 A3006 RMK A01 T02440131  RH  049%=      5-min Rain = 0
KVA1 121014Z 21003KT 24/13 A3006 RMK A01 T02440130  RH  049%=      5-min Rain = 0
KVA1 121015Z 22003KT 24/13 A3006 RMK A01 T02440131  RH  049%=      5-min Rain = 0
KVA1 121016Z 23003KT 24/13 A3006 RMK A01 T02440130  RH  049%=      5-min Rain = 0
KVA1 121017Z 23003KT 24/13 A3006 RMK A01 T02430130  RH  049%=      5-min Rain = 0
KVA1 121018Z 24003KT 24/13 A3006 RMK A01 T02430130  RH  049%=      5-min Rain = 0
KVA1 121019Z 24003KT 24/13 A3006 RMK A01 T02430130  RH  049%=      5-min Rain = 0
KVA1 121020Z 24003KT 24/13 A3006 RMK A01 T02430129  RH  049%=      5-min Rain = 0
KVA1 121021Z 24003KT 24/13 A3006 RMK A01 T02420129  RH  049%=      5-min Rain = 0
KVA1 121022Z 24003KT 24/13 A3006 RMK A01 T02420130  RH  049%=      5-min Rain = 0
KVA1 121023Z 25003KT 24/13 A3006 RMK A01 T02420129  RH  049%=      5-min Rain = 0
KVA1 121024Z 26003KT 24/13 A3006 RMK A01 T02420130  RH  050%=      5-min Rain = 0
KVA1 121025Z 27003KT 24/13 A3007 RMK A01 T02410129  RH  049%=      5-min Rain = 0
KVA1 121026Z 26004KT 24/13 A3007 RMK A01 T02420129  RH  049%=      5-min Rain = 0
KVA1 121027Z 26003KT 24/13 A3007 RMK A01 T02430130  RH  049%=      5-min Rain = 0
KVA1 121028Z 26004KT 24/13 A3007 RMK A01 T02430129  RH  049%=      5-min Rain = 0
KVA1 121029Z 27003KT 24/13 A3007 RMK A01 T02440129  RH  049%=      5-min Rain = 0
KVA1 121030Z 26003KT 24/13 A3007 RMK A01 T02440129  RH  049%=      5-min Rain = 0
KVA1 121031Z 27004KT 25/13 A3007 RMK A01 T02450129  RH  048%=      5-min Rain = 0
KVA1 121032Z 26004KT 25/13 A3007 RMK A01 T02450129  RH  048%=      5-min Rain = 0
KVA1 121033Z 26004KT 25/13 A3007 RMK A01 T02470129  RH  048%=      5-min Rain = 0
KVA1 121034Z 26004KT 25/13 A3007 RMK A01 T02480129  RH  047%=      5-min Rain = 0
KVA1 121035Z 25004KT 25/13 A3007 RMK A01 T02490129  RH  047%=      5-min Rain = 0
KVA1 121036Z 24004KT 25/13 A3006 RMK A01 T02490128  RH  047%=      5-min Rain = 0
KVA1 121037Z 24004KT 25/13 A3006 RMK A01 T02490128  RH  047%=      5-min Rain = 0
KVA1 121038Z 25005KT 25/13 A3006 RMK A01 T02490128  RH  047%=      5-min Rain = 0
KVA1 121039Z 24005KT 25/13 A3006 RMK A01 T02490128  RH  047%=      5-min Rain = 0
KVA1 121040Z 24004KT 25/13 A3006 RMK A01 T02500127  RH  047%=      5-min Rain = 0
KVA1 121041Z 25005KT 25/13 A3006 RMK A01 T02500127  RH  046%=      5-min Rain = 0
KVA1 121042Z 25004KT 25/13 A3006 RMK A01 T02510127  RH  046%=      5-min Rain = 0
KVA1 121043Z 25005KT 25/13 A3006 RMK A01 T02520128  RH  046%=      5-min Rain = 0
KVA1 121044Z 25004KT 25/13 A3006 RMK A01 T02530127  RH  046%=      5-min Rain = 0
KVA1 121045Z 24004KT 25/13 A3006 RMK A01 T02540127  RH  045%=      5-min Rain = 0
KVA1 121046Z 25004KT 25/13 A3006 RMK A01 T02540127  RH  045%=      5-min Rain = 0
KVA1 121047Z 24005KT 26/13 A3006 RMK A01 T02550127  RH  045%=      5-min Rain = 0
KVA1 121048Z 24006KT 26/13 A3006 RMK A01 T02550127  RH  045%=      5-min Rain = 0
KVA1 121049Z 24005KT 26/13 A3006 RMK A01 T02570127  RH  045%=      5-min Rain = 0
KVA1 121050Z 24005KT 26/13 A3006 RMK A01 T02580127  RH  044%=      5-min Rain = 0
KVA1 121051Z 24006KT 26/13 A3006 RMK A01 T02590127  RH  044%=      5-min Rain = 0
KVA1 121052Z 24005KT 26/13 A3006 RMK A01 T02600127  RH  044%=      5-min Rain = 0
KVA1 121053Z 24006KT 26/13 A3006 RMK A01 T02610127  RH  044%=      5-min Rain = 0
KVA1 121054Z 25005KT 26/13 A3006 RMK A01 T02610127  RH  043%=      5-min Rain = 0
KVA1 121055Z 24005KT 26/13 A3006 RMK A01 T02610127  RH  043%=      5-min Rain = 0
KVA1 121056Z 25006KT 26/13 A3006 RMK A01 T02610127  RH  043%=      5-min Rain = 0
KVA1 121057Z 24006KT 26/13 A3006 RMK A01 T02610127  RH  043%=      5-min Rain = 0
KVA1 121058Z 24005KT 26/13 A3007 RMK A01 T02610127  RH  044%=      5-min Rain = 0
KVA1 121059Z 24007KT 26/13 A3007 RMK A01 T02600127  RH  044%=      5-min Rain = 0
KVA1 121100Z 24006KT 26/13 A3007 RMK A01 T02610127  RH  043%=      5-min Rain = 0
KVA1 121101Z 23005KT 26/13 A3007 RMK A01 T02610127  RH  043%=      5-min Rain = 0
KVA1 121102Z 23006KT 26/13 A3007 RMK A01 T02610127  RH  043%=      5-min Rain = 0
KVA1 121103Z 23008KT 26/13 A3006 RMK A01 T02610127  RH  043%=      5-min Rain = 0
KVA1 121104Z 23007KT 26/13 A3007 RMK A01 T02620127  RH  043%=      5-min Rain = 0
KVA1 121105Z 22008KT 26/13 A3007 RMK A01 T02620126  RH  043%=      5-min Rain = 0
KVA1 121106Z 22008KT 26/13 A3007 RMK A01 T02630127  RH  043%=      5-min Rain = 0
KVA1 121107Z 21008KT 26/13 A3007 RMK A01 T02640127  RH  042%=      5-min Rain = 0
KVA1 121108Z 21007KT 26/13 A3007 RMK A01 T02640126  RH  042%=      5-min Rain = 0
KVA1 121109Z 21008KT 26/13 A3007 RMK A01 T02640126  RH  042%=      5-min Rain = 0
KVA1 121110Z 21010KT 26/13 A3007 RMK A01 T02640127  RH  043%=      5-min Rain = 0
KVA1 121111Z 21009KT 26/13 A3007 RMK A01 T02640127  RH  043%=      5-min Rain = 0
KVA1 121112Z 22008KT 26/13 A3007 RMK A01 T02640127  RH  043%=      5-min Rain = 0
KVA1 121113Z 21009KT 26/13 A3007 RMK A01 T02640127  RH  043%=      5-min Rain = 0
KVA1 121114Z 20008KT 26/13 A3007 RMK A01 T02640127  RH  043%=      5-min Rain = 0
KVA1 121115Z 20010KT 26/13 A3007 RMK A01 T02630127  RH  043%=      5-min Rain = 0
KVA1 121116Z 20008KT 26/13 A3007 RMK A01 T02630127  RH  043%=      5-min Rain = 0
KVA1 121117Z 20006KT 26/13 A3008 RMK A01 T02630127  RH  043%=      5-min Rain = 0
KVA1 121118Z 20006KT 26/13 A3008 RMK A01 T02620126  RH  043%=      5-min Rain = 0
KVA1 121119Z 19006KT 26/13 A3008 RMK A01 T02600125  RH  043%=      5-min Rain = 0
KVA1 121120Z 18008KT 26/13 A3008 RMK A01 T02580125  RH  044%=      5-min Rain = 0
KVA1 121121Z 19009KT 26/13 A3008 RMK A01 T02570125  RH  044%=      5-min Rain = 0
KVA1 121122Z 19008KT 26/13 A3008 RMK A01 T02570125  RH  044%=      5-min Rain = 0
KVA1 121123Z 20009KT 26/13 A3008 RMK A01 T02570125  RH  044%=      5-min Rain = 0
KVA1 121124Z 20008KT 26/13 A3008 RMK A01 T02570125  RH  044%=      5-min Rain = 0
KVA1 121125Z 20009KT 26/13 A3008 RMK A01 T02570125  RH  044%=      5-min Rain = 0
KVA1 121126Z 21009KT 26/13 A3008 RMK A01 T02580125  RH  043%=      5-min Rain = 0
KVA1 121127Z 21010KT 26/13 A3008 RMK A01 T02600125  RH  043%=      5-min Rain = 0
KVA1 121128Z 21009KT 26/13 A3008 RMK A01 T02610125  RH  043%=      5-min Rain = 0
KVA1 121129Z 21008KT 26/13 A3008 RMK A01 T02620125  RH  043%=      5-min Rain = 0
KVA1 121130Z 22009KT 26/13 A3008 RMK A01 T02620125  RH  042%=      5-min Rain = 0
KVA1 121131Z 22007KT 26/13 A3008 RMK A01 T02630125  RH  042%=      5-min Rain = 0
KVA1 121132Z 21007KT 26/13 A3008 RMK A01 T02630125  RH  042%=      5-min Rain = 0
KVA1 121133Z 22008KT 26/12 A3008 RMK A01 T02630124  RH  042%=      5-min Rain = 0
KVA1 121134Z 22009KT 26/13 A3008 RMK A01 T02640125  RH  042%=      5-min Rain = 0
KVA1 121135Z 22009KT 27/13 A3008 RMK A01 T02650125  RH  042%=      5-min Rain = 0
KVA1 121136Z 22009KT 27/13 A3008 RMK A01 T02650125  RH  042%=      5-min Rain = 0
KVA1 121137Z 22009KT 27/13 A3008 RMK A01 T02650125  RH  042%=      5-min Rain = 0
KVA1 121138Z 22008KT 27/13 A3008 RMK A01 T02660125  RH  041%=      5-min Rain = 0
KVA1 121139Z 22007KT 27/13 A3008 RMK A01 T02660125  RH  041%=      5-min Rain = 0
KVA1 121140Z 22007KT 27/13 A3008 RMK A01 T02660125  RH  041%=      5-min Rain = 0
KVA1 121141Z 21008KT 27/13 A3008 RMK A01 T02660125  RH  041%=      5-min Rain = 0
KVA1 121142Z 21009KT 27/13 A3008 RMK A01 T02670125  RH  041%=      5-min Rain = 0
KVA1 121143Z 21008KT 27/12 A3008 RMK A01 T02660124  RH  041%=      5-min Rain = 0
KVA1 121144Z 22007KT 27/12 A3008 RMK A01 T02670124  RH  041%=      5-min Rain = 0
KVA1 121145Z 22006KT 27/12 A3008 RMK A01 T02670124  RH  041%=      5-min Rain = 0
KVA1 121146Z 21006KT 27/12 A3008 RMK A01 T02660124  RH  041%=      5-min Rain = 0
KVA1 121147Z 22006KT 26/12 A3008 RMK A01 T02640124  RH  042%=      5-min Rain = 0
KVA1 121148Z 23008KT 26/12 A3008 RMK A01 T02630124  RH  042%=      5-min Rain = 0
KVA1 121149Z 22006KT 26/12 A3008 RMK A01 T02630124  RH  042%=      5-min Rain = 0
KVA1 121150Z 21006KT 26/12 A3008 RMK A01 T02630124  RH  042%=      5-min Rain = 0
KVA1 121151Z 20007KT 26/12 A3009 RMK A01 T02620124  RH  042%=      5-min Rain = 0
KVA1 121152Z 21006KT 26/12 A3009 RMK A01 T02610124  RH  042%=      5-min Rain = 0
KVA1 121153Z 22006KT 26/12 A3009 RMK A01 T02600123  RH  043%=      5-min Rain = 0
KVA1 121154Z 22007KT 26/12 A3009 RMK A01 T02590124  RH  043%=      5-min Rain = 0
KVA1 121155Z 22007KT 26/12 A3009 RMK A01 T02590124  RH  043%=      5-min Rain = 0
KVA1 121156Z 20006KT 26/12 A3009 RMK A01 T02590124  RH  043%=      5-min Rain = 0
KVA1 121157Z 20006KT 26/12 A3009 RMK A01 T02590124  RH  043%=      5-min Rain = 0
KVA1 121158Z 20007KT 26/12 A3009 RMK A01 T02580124  RH  043%=      5-min Rain = 0
KVA1 121159Z 19006KT 26/12 A3009 RMK A01 T02580124  RH  043%=      5-min Rain = 0
KVA1 121200Z 19007KT 26/12 A3009 RMK A01 T02570123  RH  043%=      5-min Rain = 0
KVA1 121201Z 19007KT 26/12 A3009 RMK A01 T02560123  RH  043%=      5-min Rain = 0
KVA1 121202Z 19007KT 26/12 A3009 RMK A01 T02550123  RH  044%=      5-min Rain = 0
KVA1 121203Z 19006KT 26/12 A3009 RMK A01 T02550123  RH  044%=      5-min Rain = 0
KVA1 121204Z 19007KT 25/12 A3009 RMK A01 T02540123  RH  044%=      5-min Rain = 0
KVA1 121205Z 19007KT 25/12 A3009 RMK A01 T02540123  RH  044%=      5-min Rain = 0
KVA1 121206Z 19006KT 25/12 A3009 RMK A01 T02540123  RH  044%=      5-min Rain = 0
KVA1 121207Z 20006KT 25/12 A3009 RMK A01 T02530123  RH  044%=      5-min Rain = 0
KVA1 121208Z 20007KT 25/12 A3009 RMK A01 T02510123  RH  045%=      5-min Rain = 0
KVA1 121209Z 19007KT 25/12 A3009 RMK A01 T02500123  RH  045%=      5-min Rain = 0
KVA1 121210Z 19008KT 25/12 A3009 RMK A01 T02490123  RH  045%=      5-min Rain = 0
KVA1 121211Z 18009KT 25/12 A3009 RMK A01 T02490123  RH  045%=      5-min Rain = 0
KVA1 121212Z 20007KT 25/12 A3009 RMK A01 T02490123  RH  045%=      5-min Rain = 0
KVA1 121213Z 20006KT 25/12 A3009 RMK A01 T02490123  RH  045%=      5-min Rain = 0
KVA1 121214Z 20007KT 25/12 A3009 RMK A01 T02490123  RH  045%=      5-min Rain = 0
KVA1 121215Z 23005KT 25/12 A3009 RMK A01 T02490123  RH  045%=      5-min Rain = 0
KVA1 121216Z 24004KT 25/12 A3009 RMK A01 T02480123  RH  046%=      5-min Rain = 0
KVA1 121217Z 21003KT 25/12 A3009 RMK A01 T02480123  RH  045%=      5-min Rain = 0
KVA1 121218Z 24004KT 25/12 A3009 RMK A01 T02490123  RH  045%=      5-min Rain = 0
KVA1 121219Z 25004KT 25/12 A3009 RMK A01 T02490123  RH  045%=      5-min Rain = 0
KVA1 121220Z 26006KT 25/12 A3009 RMK A01 T02490122  RH  045%=      5-min Rain = 0
KVA1 121221Z 25006KT 25/12 A3009 RMK A01 T02480122  RH  046%=      5-min Rain = 0
KVA1 121222Z 25006KT 25/12 A3009 RMK A01 T02470123  RH  046%=      5-min Rain = 0
KVA1 121223Z 26009KT 25/12 A3009 RMK A01 T02470123  RH  046%=      5-min Rain = 0
KVA1 121224Z 25007KT 25/12 A3009 RMK A01 T02480123  RH  046%=      5-min Rain = 0
KVA1 121225Z 25006KT 25/12 A3009 RMK A01 T02510123  RH  045%=      5-min Rain = 0
KVA1 121226Z 24006KT 25/12 A3009 RMK A01 T02510123  RH  045%=      5-min Rain = 0
KVA1 121227Z 24006KT 25/12 A3009 RMK A01 T02500123  RH  045%=      5-min Rain = 0
KVA1 121228Z 24006KT 25/12 A3009 RMK A01 T02500122  RH  045%=      5-min Rain = 0
KVA1 121229Z 24007KT 25/12 A3009 RMK A01 T02490123  RH  045%=      5-min Rain = 0
KVA1 121230Z 24005KT 25/12 A3009 RMK A01 T02480122  RH  045%=      5-min Rain = 0
KVA1 121231Z 24006KT 25/12 A3009 RMK A01 T02470122  RH  046%=      5-min Rain = 0
KVA1 121232Z 24005KT 25/12 A3009 RMK A01 T02460122  RH  046%=      5-min Rain = 0
KVA1 121233Z 24005KT 25/12 A3009 RMK A01 T02450122  RH  046%=      5-min Rain = 0
KVA1 121234Z 24004KT 25/12 A3009 RMK A01 T02450122  RH  046%=      5-min Rain = 0
KVA1 121235Z 25004KT 24/12 A3009 RMK A01 T02440122  RH  046%=      5-min Rain = 0
KVA1 121236Z 25006KT 24/12 A3009 RMK A01 T02440122  RH  047%=      5-min Rain = 0
KVA1 121237Z 25007KT 24/12 A301 RMK A01 T02430122  RH  047%=      5-min Rain = 0
KVA1 121238Z 24008KT 24/12 A301 RMK A01 T02440123  RH  047%=      5-min Rain = 0
KVA1 121239Z 24008KT 24/12 A301 RMK A01 T02440122  RH  047%=      5-min Rain = 0
KVA1 121240Z 24007KT 25/12 A301 RMK A01 T02450123  RH  046%=      5-min Rain = 0
KVA1 121241Z 25008KT 25/12 A301 RMK A01 T02460122  RH  046%=      5-min Rain = 0
KVA1 121242Z 24008KT 25/12 A301 RMK A01 T02470123  RH  046%=      5-min Rain = 0
KVA1 121243Z 23006KT 25/12 A301 RMK A01 T02470123  RH  046%=      5-min Rain = 0
KVA1 121244Z 24006KT 25/12 A301 RMK A01 T02480123  RH  046%=      5-min Rain = 0
KVA1 121245Z 23007KT 25/12 A301 RMK A01 T02490123  RH  045%=      5-min Rain = 0
KVA1 121246Z 23008KT 25/12 A301 RMK A01 T02490123  RH  045%=      5-min Rain = 0
KVA1 121247Z 24007KT 25/12 A301 RMK A01 T02500123  RH  045%=      5-min Rain = 0
KVA1 121248Z 24008KT 25/12 A301 RMK A01 T02520124  RH  045%=      5-min Rain = 0
KVA1 121249Z 24008KT 25/12 A301 RMK A01 T02520124  RH  045%=      5-min Rain = 0
KVA1 121250Z 24009KT 25/12 A301 RMK A01 T02530124  RH  045%=      5-min Rain = 0
KVA1 121251Z 24008KT 25/12 A301 RMK A01 T02530123  RH  044%=      5-min Rain = 0
KVA1 121252Z 24007KT 25/12 A301 RMK A01 T02540124  RH  044%=      5-min Rain = 0
KVA1 121253Z 24007KT 26/12 A301 RMK A01 T02550123  RH  044%=      5-min Rain = 0
KVA1 121254Z 25007KT 26/12 A301 RMK A01 T02560123  RH  044%=      5-min Rain = 0
KVA1 121255Z 25006KT 26/12 A301 RMK A01 T02560123  RH  044%=      5-min Rain = 0
KVA1 121256Z 24006KT 26/12 A301 RMK A01 T02580124  RH  043%=      5-min Rain = 0
KVA1 121257Z 24005KT 26/12 A301 RMK A01 T02580124  RH  043%=      5-min Rain = 0
KVA1 121258Z 24006KT 26/12 A301 RMK A01 T02590124  RH  043%=      5-min Rain = 0
KVA1 121259Z 23007KT 26/12 A301 RMK A01 T02590124  RH  043%=      5-min Rain = 0
KVA1 121300Z 23007KT 26/12 A301 RMK A01 T02600124  RH  043%=      5-min Rain = 0
KVA1 121301Z 23006KT 26/12 A301 RMK A01 T02600124  RH  043%=      5-min Rain = 0
KVA1 121302Z 23007KT 26/12 A3011 RMK A01 T02600124  RH  043%=      5-min Rain = 0
KVA1 121303Z 23008KT 26/12 A3011 RMK A01 T02610124  RH  043%=      5-min Rain = 0
KVA1 121304Z 23007KT 26/12 A3011 RMK A01 T02610124  RH  043%=      5-min Rain = 0
KVA1 121305Z 22007KT 26/12 A3011 RMK A01 T02610124  RH  043%=      5-min Rain = 0
KVA1 121306Z 22007KT 26/13 A3011 RMK A01 T02610125  RH  043%=      5-min Rain = 0
KVA1 121307Z 23007KT 26/13 A3011 RMK A01 T02610125  RH  043%=      5-min Rain = 0
KVA1 121308Z 23008KT 26/13 A3011 RMK A01 T02610126  RH  043%=      5-min Rain = 0
KVA1 121309Z 22008KT 26/13 A3011 RMK A01 T02610126  RH  043%=      5-min Rain = 0
KVA1 121310Z 23007KT 26/13 A3011 RMK A01 T02610127  RH  043%=      5-min Rain = 0
KVA1 121311Z 23007KT 26/13 A3011 RMK A01 T02600127  RH  044%=      5-min Rain = 0
KVA1 121312Z 24007KT 26/13 A3011 RMK A01 T02600127  RH  044%=      5-min Rain = 0
KVA1 121313Z 24007KT 26/13 A3011 RMK A01 T02600127  RH  044%=      5-min Rain = 0
KVA1 121314Z 24006KT 26/13 A3011 RMK A01 T02600127  RH  044%=      5-min Rain = 0
KVA1 121315Z 23007KT 26/13 A3011 RMK A01 T02600127  RH  044%=      5-min Rain = 0
KVA1 121316Z 23007KT 26/13 A3011 RMK A01 T02600127  RH  044%=      5-min Rain = 0
KVA1 121317Z 23007KT 26/13 A3011 RMK A01 T02610127  RH  043%=      5-min Rain = 0
KVA1 121318Z 23007KT 26/13 A3011 RMK A01 T02620127  RH  043%=      5-min Rain = 0
KVA1 121319Z 24006KT 26/13 A3011 RMK A01 T02630127  RH  043%=      5-min Rain = 0
KVA1 121320Z 23006KT 26/13 A3011 RMK A01 T02630128  RH  043%=      5-min Rain = 0
KVA1 121321Z 23006KT 26/13 A3011 RMK A01 T02640128  RH  043%=      5-min Rain = 0
KVA1 121322Z 24007KT 26/13 A3011 RMK A01 T02640128  RH  043%=      5-min Rain = 0
KVA1 121323Z 24008KT 26/13 A3011 RMK A01 T02640128  RH  043%=      5-min Rain = 0
KVA1 121324Z 24006KT 26/13 A3011 RMK A01 T02640128  RH  043%=      5-min Rain = 0
KVA1 121325Z 23007KT 27/13 A3011 RMK A01 T02650128  RH  043%=      5-min Rain = 0
KVA1 121326Z 24008KT 27/13 A3011 RMK A01 T02670128  RH  042%=      5-min Rain = 0
KVA1 121327Z 24009G14KT 27/13 A3011 RMK A01 T02680127  RH  042%=      5-min Rain = 0
KVA1 121328Z 24009KT 27/13 A3011 RMK A01 T02680127  RH  042%=      5-min Rain = 0
KVA1 121329Z 24008KT 27/13 A3011 RMK A01 T02690127  RH  041%=      5-min Rain = 0
KVA1 121330Z 24008KT 27/13 A3011 RMK A01 T02700127  RH  041%=      5-min Rain = 0
KVA1 121331Z 24009KT 27/13 A3011 RMK A01 T02710127  RH  041%=      5-min Rain = 0
KVA1 121332Z 24009KT 27/13 A3011 RMK A01 T02710128  RH  041%=      5-min Rain = 0
KVA1 121333Z 25010KT 27/13 A3011 RMK A01 T02720128  RH  041%=      5-min Rain = 0
KVA1 121334Z 24009KT 27/13 A3011 RMK A01 T02730129  RH  041%=      5-min Rain = 0
KVA1 121335Z 25007KT 27/13 A3011 RMK A01 T02740129  RH  041%=      5-min Rain = 0
KVA1 121336Z 25011KT 28/13 A3011 RMK A01 T02750130  RH  041%=      5-min Rain = 0
KVA1 121337Z 25011KT 28/13 A3011 RMK A01 T02750130  RH  041%=      5-min Rain = 0
KVA1 121338Z 24009KT 28/13 A3011 RMK A01 T02750130  RH  041%=      5-min Rain = 0
KVA1 121339Z 25009KT 28/13 A3011 RMK A01 T02760131  RH  041%=      5-min Rain = 0
KVA1 121340Z 25013KT 28/13 A3011 RMK A01 T02770131  RH  041%=      5-min Rain = 0
KVA1 121341Z 25010KT 28/13 A3011 RMK A01 T02770131  RH  040%=      5-min Rain = 0
KVA1 121342Z 26010KT 28/13 A3011 RMK A01 T02770131  RH  041%=      5-min Rain = 0
KVA1 121343Z 26010G15KT 28/13 A3011 RMK A01 T02770131  RH  041%=      5-min Rain = 0
KVA1 121344Z 26013KT 28/13 A3011 RMK A01 T02770131  RH  041%=      5-min Rain = 0
KVA1 121345Z 25013KT 28/13 A3011 RMK A01 T02770131  RH  041%=      5-min Rain = 0
KVA1 121346Z 24011G16KT 28/13 A3011 RMK A01 T02770132  RH  041%=      5-min Rain = 0
KVA1 121347Z 25013KT 28/13 A3011 RMK A01 T02770132  RH  041%=      5-min Rain = 0
KVA1 121348Z 26009KT 28/13 A3011 RMK A01 T02780132  RH  041%=      5-min Rain = 0
KVA1 121349Z 25010KT 28/13 A3011 RMK A01 T02790132  RH  040%=      5-min Rain = 0
KVA1 121350Z 25011KT 28/13 A3011 RMK A01 T02800132  RH  040%=      5-min Rain = 0
KVA1 121351Z 25010KT 28/13 A3011 RMK A01 T02800132  RH  040%=      5-min Rain = 0
KVA1 121352Z 24009KT 28/13 A3011 RMK A01 T02800132  RH  040%=      5-min Rain = 0
KVA1 121353Z 25012KT 28/13 A3011 RMK A01 T02800132  RH  040%=      5-min Rain = 0
KVA1 121354Z 25011KT 28/13 A3011 RMK A01 T02800133  RH  040%=      5-min Rain = 0
KVA1 121355Z 26010KT 28/13 A3011 RMK A01 T02800133  RH  040%=      5-min Rain = 0
KVA1 121356Z 25010KT 28/13 A3011 RMK A01 T02810133  RH  040%=      5-min Rain = 0
KVA1 121357Z 25013KT 28/13 A3011 RMK A01 T02800133  RH  040%=      5-min Rain = 0
KVA1 121358Z 24013KT 28/13 A3011 RMK A01 T02800133  RH  040%=      5-min Rain = 0
KVA1 121359Z 25011KT 28/13 A3011 RMK A01 T02800133  RH  040%=      5-min Rain = 0
KVA1 121400Z 26012KT 28/13 A3011 RMK A01 T02800133  RH  040%=      5-min Rain = 0
KVA1 121401Z 25009KT 28/13 A3011 RMK A01 T02800133  RH  040%=      5-min Rain = 0
KVA1 121402Z 26009KT 28/13 A3011 RMK A01 T02800133  RH  040%=      5-min Rain = 0
KVA1 121403Z 25011KT 28/13 A3011 RMK A01 T02810134  RH  040%=      5-min Rain = 0
KVA1 121404Z 25010KT 28/13 A3011 RMK A01 T02820134  RH  040%=      5-min Rain = 0
KVA1 121405Z 25009KT 28/13 A3011 RMK A01 T02820134  RH  040%=      5-min Rain = 0
KVA1 121406Z 25009KT 28/13 A3011 RMK A01 T02820134  RH  040%=      5-min Rain = 0
KVA1 121407Z 25011KT 28/13 A3011 RMK A01 T02810134  RH  040%=      5-min Rain = 0
KVA1 121408Z 26009KT 28/13 A3011 RMK A01 T02810134  RH  040%=      5-min Rain = 0
KVA1 121409Z 27009KT 28/14 A3011 RMK A01 T02820135  RH  040%=      5-min Rain = 0
KVA1 121410Z 28008KT 28/14 A3011 RMK A01 T02830135  RH  040%=      5-min Rain = 0
KVA1 121411Z 27009KT 28/14 A3011 RMK A01 T02840136  RH  040%=      5-min Rain = 0
KVA1 121412Z 26009KT 28/14 A3011 RMK A01 T02840136  RH  040%=      5-min Rain = 0
KVA1 121413Z 25009KT 29/14 A3011 RMK A01 T02860135  RH  040%=      5-min Rain = 0
KVA1 121414Z 26010KT 29/14 A3011 RMK A01 T02860135  RH  039%=      5-min Rain = 0
KVA1 121415Z 27011KT 29/14 A3011 RMK A01 T02860135  RH  039%=      5-min Rain = 0
KVA1 121416Z 26010KT 29/14 A3011 RMK A01 T02860135  RH  039%=      5-min Rain = 0
KVA1 121417Z 25010KT 29/14 A3011 RMK A01 T02860135  RH  040%=      5-min Rain = 0
KVA1 121418Z 25010KT 29/14 A3011 RMK A01 T02860136  RH  040%=      5-min Rain = 0
KVA1 121419Z 26010KT 29/14 A3011 RMK A01 T02870135  RH  039%=      5-min Rain = 0
KVA1 121420Z 27011KT 29/14 A3011 RMK A01 T02870136  RH  040%=      5-min Rain = 0
KVA1 121421Z 28007KT 29/14 A3012 RMK A01 T02870136  RH  039%=      5-min Rain = 0
KVA1 121422Z 27008KT 29/14 A3012 RMK A01 T02870136  RH  040%=      5-min Rain = 0
KVA1 121423Z 26009KT 29/14 A3012 RMK A01 T02870136  RH  040%=      5-min Rain = 0
KVA1 121424Z 27007KT 29/14 A3012 RMK A01 T02860135  RH  040%=      5-min Rain = 0
KVA1 121425Z 28008KT 29/14 A3012 RMK A01 T02850136  RH  040%=      5-min Rain = 0
KVA1 121426Z 26007KT 29/14 A3012 RMK A01 T02850136  RH  040%=      5-min Rain = 0
KVA1 121427Z 25007KT 29/14 A3012 RMK A01 T02850136  RH  040%=      5-min Rain = 0
KVA1 121428Z 27006KT 29/14 A3011 RMK A01 T02870137  RH  040%=      5-min Rain = 0
KVA1 121429Z 26008KT 29/14 A3012 RMK A01 T02890137  RH  039%=      5-min Rain = 0
KVA1 121430Z 26007KT 29/14 A3012 RMK A01 T02890137  RH  039%=      5-min Rain = 0
KVA1 121431Z 26010KT 29/14 A3012 RMK A01 T02890137  RH  039%=      5-min Rain = 0
KVA1 121432Z 28011KT 29/14 A3012 RMK A01 T02910138  RH  039%=      5-min Rain = 0
KVA1 121433Z 26010KT 29/14 A3012 RMK A01 T02900137  RH  039%=      5-min Rain = 0
KVA1 121434Z 25007KT 29/14 A3012 RMK A01 T02900137  RH  039%=      5-min Rain = 0
KVA1 121435Z 25008KT 29/14 A3012 RMK A01 T02910137  RH  039%=      5-min Rain = 0
KVA1 121436Z 26005KT 29/14 A3012 RMK A01 T02900137  RH  039%=      5-min Rain = 0
KVA1 121437Z 26010KT 29/14 A3012 RMK A01 T02920138  RH  039%=      5-min Rain = 0
KVA1 121438Z 27009KT 29/14 A3012 RMK A01 T02930137  RH  039%=      5-min Rain = 0
KVA1 121439Z 28010KT 29/14 A3012 RMK A01 T02920138  RH  039%=      5-min Rain = 0
KVA1 121440Z 27009KT 29/14 A3012 RMK A01 T02920137  RH  039%=      5-min Rain = 0
KVA1 121441Z 24006KT 29/14 A3012 RMK A01 T02930137  RH  039%=      5-min Rain = 0
KVA1 121442Z 24007KT 29/14 A3012 RMK A01 T02920137  RH  039%=      5-min Rain = 0
KVA1 121443Z 25005KT 29/14 A3012 RMK A01 T02920138  RH  039%=      5-min Rain = 0
KVA1 121444Z 25005KT 29/14 A3012 RMK A01 T02940139  RH  039%=      5-min Rain = 0
KVA1 121445Z 25008KT 30/14 A3012 RMK A01 T02960138  RH  038%=      5-min Rain = 0
KVA1 121446Z 25007KT 30/14 A3012 RMK A01 T02970138  RH  038%=      5-min Rain = 0
KVA1 121447Z 24006KT 30/14 A3012 RMK A01 T02960137  RH  038%=      5-min Rain = 0
KVA1 121448Z 25007KT 30/14 A3012 RMK A01 T02960138  RH  038%=      5-min Rain = 0
KVA1 121449Z 25007KT 30/14 A3012 RMK A01 T02970138  RH  038%=      5-min Rain = 0
KVA1 121450Z 27006KT 30/14 A3012 RMK A01 T02980138  RH  038%=      5-min Rain = 0
KVA1 121451Z 26009KT 30/14 A3012 RMK A01 T02970138  RH  038%=      5-min Rain = 0
KVA1 121452Z 27009KT 30/14 A3012 RMK A01 T02970138  RH  038%=      5-min Rain = 0
KVA1 121453Z 25008KT 30/14 A3012 RMK A01 T02970137  RH  038%=      5-min Rain = 0
KVA1 121454Z 25007KT 30/14 A3012 RMK A01 T02970137  RH  038%=      5-min Rain = 0
KVA1 121455Z 28006KT 30/14 A3012 RMK A01 T02980138  RH  038%=      5-min Rain = 0
KVA1 121456Z 27005KT 30/14 A3012 RMK A01 T02980138  RH  038%=      5-min Rain = 0
KVA1 121457Z 24007KT 30/14 A3012 RMK A01 T02980138  RH  037%=      5-min Rain = 0
KVA1 121458Z 27006KT 30/14 A3012 RMK A01 T02990139  RH  037%=      5-min Rain = 0
KVA1 121459Z 27007KT 30/14 A3012 RMK A01 T03010139  RH  037%=      5-min Rain = 0
KVA1 121500Z 26006KT 30/14 A3012 RMK A01 T03030139  RH  037%=      5-min Rain = 0
KVA1 121501Z 25008KT 30/14 A3012 RMK A01 T03020138  RH  037%=      5-min Rain = 0
KVA1 121502Z 25007KT 30/14 A3012 RMK A01 T03020138  RH  037%=      5-min Rain = 0
KVA1 121503Z 25007KT 30/14 A3012 RMK A01 T03030140  RH  037%=      5-min Rain = 0
KVA1 121504Z 27005KT 31/14 A3012 RMK A01 T03060139  RH  036%=      5-min Rain = 0
KVA1 121505Z 29007G12KT 31/14 A3012 RMK A01 T03060137  RH  036%=      5-min Rain = 0
KVA1 121506Z 27008KT 31/14 A3012 RMK A01 T03060136  RH  035%=      5-min Rain = 0
KVA1 121507Z 28007KT 31/14 A3012 RMK A01 T03050136  RH  036%=      5-min Rain = 0
KVA1 121508Z 30010KT 30/14 A3012 RMK A01 T03040136  RH  036%=      5-min Rain = 0
KVA1 121509Z 29009KT 30/14 A3012 RMK A01 T03040137  RH  036%=      5-min Rain = 0
KVA1 121510Z 29010KT 30/14 A3012 RMK A01 T03040137  RH  036%=      5-min Rain = 0
KVA1 121511Z 29013G18KT 30/14 A3012 RMK A01 T03040136  RH  036%=      5-min Rain = 0
KVA1 121512Z 28009KT 30/14 A3012 RMK A01 T03030135  RH  036%=      5-min Rain = 0
KVA1 121513Z 29011KT 30/14 A3012 RMK A01 T03030136  RH  036%=      5-min Rain = 0
KVA1 121514Z 27011KT 31/14 A3012 RMK A01 T03050136  RH  036%=      5-min Rain = 0
KVA1 121515Z 27012KT 31/14 A3012 RMK A01 T03050135  RH  035%=      5-min Rain = 0
KVA1 121516Z 27010KT 31/13 A3012 RMK A01 T03050134  RH  035%=      5-min Rain = 0
KVA1 121517Z 26012KT 30/13 A3012 RMK A01 T03040134  RH  035%=      5-min Rain = 0
KVA1 121518Z 27012KT 30/13 A3012 RMK A01 T03040134  RH  035%=      5-min Rain = 0
KVA1 121519Z 28009KT 31/14 A3012 RMK A01 T03060135  RH  035%=      5-min Rain = 0
KVA1 121520Z 28012KT 31/14 A3012 RMK A01 T03090137  RH  035%=      5-min Rain = 0
KVA1 121521Z 27010KT 31/14 A3012 RMK A01 T03080135  RH  035%=      5-min Rain = 0
KVA1 121522Z 27012KT 31/14 A3012 RMK A01 T03070135  RH  035%=      5-min Rain = 0
KVA1 121523Z 27010KT 31/14 A3012 RMK A01 T03060135  RH  035%=      5-min Rain = 0
KVA1 121524Z 26011G16KT 31/13 A3012 RMK A01 T03060134  RH  035%=      5-min Rain = 0
KVA1 121525Z 27012KT 31/13 A3012 RMK A01 T03080133  RH  034%=      5-min Rain = 0
KVA1 121526Z 27010KT 31/13 A3012 RMK A01 T03090134  RH  034%=      5-min Rain = 0
KVA1 121527Z 27009KT 31/14 A3012 RMK A01 T03090135  RH  035%=      5-min Rain = 0
KVA1 121528Z 26012KT 31/13 A3012 RMK A01 T03090134  RH  035%=      5-min Rain = 0
KVA1 121529Z 26011KT 31/13 A3012 RMK A01 T03090134  RH  034%=      5-min Rain = 0
KVA1 121530Z 25012G17KT 31/13 A3012 RMK A01 T03100134  RH  034%=      5-min Rain = 0
KVA1 121531Z 27014KT 31/13 A3012 RMK A01 T03110134  RH  034%=      5-min Rain = 0
KVA1 121532Z 27011KT 31/13 A3012 RMK A01 T03120134  RH  034%=      5-min Rain = 0
KVA1 121533Z 27010KT 31/13 A3012 RMK A01 T03120134  RH  034%=      5-min Rain = 0
KVA1 121534Z 26010KT 31/13 A3012 RMK A01 T03120134  RH  034%=      5-min Rain = 0
KVA1 121535Z 27010KT 31/13 A3012 RMK A01 T03130134  RH  034%=      5-min Rain = 0
KVA1 121536Z 27009KT 31/13 A3012 RMK A01 T03130134  RH  034%=      5-min Rain = 0
KVA1 121537Z 28009KT 31/14 A3012 RMK A01 T03130135  RH  034%=      5-min Rain = 0
KVA1 121538Z 27009KT 31/14 A3012 RMK A01 T03140136  RH  034%=      5-min Rain = 0
KVA1 121539Z 25011KT 31/14 A3012 RMK A01 T03140135  RH  034%=      5-min Rain = 0
KVA1 121540Z 26011KT 31/13 A3012 RMK A01 T03120133  RH  034%=      5-min Rain = 0
KVA1 121541Z 26009KT 31/13 A3012 RMK A01 T03100134  RH  034%=      5-min Rain = 0
KVA1 121542Z 27010KT 31/14 A3012 RMK A01 T03120135  RH  034%=      5-min Rain = 0
KVA1 121543Z 29011KT 31/14 A3012 RMK A01 T03140136  RH  034%=      5-min Rain = 0
KVA1 121544Z 28009KT 31/14 A3012 RMK A01 T03130136  RH  034%=      5-min Rain = 0
KVA1 121545Z 28007KT 31/14 A3012 RMK A01 T03130136  RH  034%=      5-min Rain = 0
KVA1 121546Z 30008KT 31/14 A3012 RMK A01 T03140136  RH  034%=      5-min Rain = 0
KVA1 121547Z 30010KT 32/14 A3012 RMK A01 T03150136  RH  034%=      5-min Rain = 0
KVA1 121548Z 30011KT 32/14 A3012 RMK A01 T03160135  RH  033%=      5-min Rain = 0
KVA1 121549Z 29010KT 32/13 A3012 RMK A01 T03150134  RH  033%=      5-min Rain = 0
KVA1 121550Z 28012KT 31/13 A3012 RMK A01 T03140134  RH  033%=      5-min Rain = 0
KVA1 121551Z 29012KT 31/13 A3012 RMK A01 T03140134  RH  033%=      5-min Rain = 0
KVA1 121552Z 29009KT 31/13 A3012 RMK A01 T03130134  RH  033%=      5-min Rain = 0
KVA1 121553Z 30008KT 31/13 A3012 RMK A01 T03130134  RH  034%=      5-min Rain = 0
KVA1 121554Z 28007KT 31/13 A3012 RMK A01 T03130134  RH  034%=      5-min Rain = 0
KVA1 121555Z 28006KT 32/13 A3012 RMK A01 T03150134  RH  033%=      5-min Rain = 0
KVA1 121556Z 30006KT 31/13 A3012 RMK A01 T03140134  RH  033%=      5-min Rain = 0
KVA1 121557Z 29003KT 31/13 A3012 RMK A01 T03130134  RH  034%=      5-min Rain = 0
KVA1 121558Z 26009KT 31/14 A3012 RMK A01 T03130136  RH  034%=      5-min Rain = 0
KVA1 121559Z 26011KT 31/14 A3012 RMK A01 T03140136  RH  034%=      5-min Rain = 0
KVA1 121600Z 27010KT 31/14 A3012 RMK A01 T03140135  RH  034%=      5-min Rain = 0
KVA1 121601Z 25008KT 31/14 A3012 RMK A01 T03140136  RH  034%=      5-min Rain = 0
KVA1 121602Z 24008KT 31/14 A3012 RMK A01 T03140136  RH  034%=      5-min Rain = 0
KVA1 121603Z 26009KT 32/14 A3012 RMK A01 T03150137  RH  034%=      5-min Rain = 0
KVA1 121604Z 27011KT 32/14 A3012 RMK A01 T03210136  RH  033%=      5-min Rain = 0
KVA1 121605Z 29009KT 32/14 A3012 RMK A01 T03200135  RH  033%=      5-min Rain = 0
KVA1 121606Z 27007KT 32/14 A3012 RMK A01 T03190136  RH  033%=      5-min Rain = 0
KVA1 121607Z 28007KT 32/14 A3012 RMK A01 T03190136  RH  033%=      5-min Rain = 0
KVA1 121608Z 26010KT 32/14 A3012 RMK A01 T03180136  RH  033%=      5-min Rain = 0
KVA1 121609Z 25010KT 32/14 A3012 RMK A01 T03200136  RH  033%=      5-min Rain = 0
KVA1 121610Z 27010KT 32/14 A3012 RMK A01 T03190136  RH  033%=      5-min Rain = 0
KVA1 121611Z 28013KT 32/14 A3012 RMK A01 T03200138  RH  033%=      5-min Rain = 0
KVA1 121612Z 27011KT 32/14 A3012 RMK A01 T03210137  RH  033%=      5-min Rain = 0
KVA1 121613Z 28010G15KT 32/14 A3012 RMK A01 T03210137  RH  033%=      5-min Rain = 0
KVA1 121614Z 28008KT 32/14 A3012 RMK A01 T03210137  RH  033%=      5-min Rain = 0
KVA1 121615Z 27006KT 32/14 A3012 RMK A01 T03200137  RH  033%=      5-min Rain = 0
KVA1 121616Z 29007KT 32/14 A3012 RMK A01 T03230138  RH  033%=      5-min Rain = 0
KVA1 121617Z 29008KT 33/14 A3012 RMK A01 T03250138  RH  032%=      5-min Rain = 0
KVA1 121618Z 27008KT 33/14 A3012 RMK A01 T03280138  RH  032%=      5-min Rain = 0
KVA1 121619Z 26009KT 33/14 A3012 RMK A01 T03260137  RH  032%=      5-min Rain = 0
KVA1 121620Z 30010KT 33/14 A3012 RMK A01 T03260137  RH  032%=      5-min Rain = 0
KVA1 121621Z 29009KT 33/14 A3012 RMK A01 T03270137  RH  032%=      5-min Rain = 0
KVA1 121622Z 28009G14KT 33/14 A3012 RMK A01 T03250136  RH  032%=      5-min Rain = 0
KVA1 121623Z 29008KT 33/14 A3012 RMK A01 T03250136  RH  032%=      5-min Rain = 0
KVA1 121624Z 30009KT 33/14 A3012 RMK A01 T03290137  RH  031%=      5-min Rain = 0
KVA1 121625Z 30008KT 33/14 A3012 RMK A01 T03290136  RH  031%=      5-min Rain = 0
KVA1 121626Z 28009KT 33/14 A3012 RMK A01 T03260136  RH  032%=      5-min Rain = 0
KVA1 121627Z 27007KT 33/14 A3012 RMK A01 T03260135  RH  031%=      5-min Rain = 0
KVA1 121628Z 27007KT 33/14 A3012 RMK A01 T03250135  RH  032%=      5-min Rain = 0
KVA1 121629Z 28008KT 33/13 A3012 RMK A01 T03270134  RH  031%=      5-min Rain = 0
KVA1 121630Z 29009G15KT 33/13 A3012 RMK A01 T03270134  RH  031%=      5-min Rain = 0
KVA1 121631Z 28012KT 33/13 A3012 RMK A01 T03270133  RH  031%=      5-min Rain = 0
KVA1 121632Z 28010KT 33/13 A3012 RMK A01 T03270133  RH  031%=      5-min Rain = 0
KVA1 121633Z 31008KT 33/13 A3012 RMK A01 T03270133  RH  031%=      5-min Rain = 0
KVA1 121634Z 31011KT 33/13 A3012 RMK A01 T03280133  RH  031%=      5-min Rain = 0
KVA1 121635Z 31008KT 33/13 A3012 RMK A01 T03270133  RH  031%=      5-min Rain = 0
KVA1 121636Z 32007G12KT 33/14 A3012 RMK A01 T03310135  RH  031%=      5-min Rain = 0
KVA1 121637Z 33010KT 33/14 A3012 RMK A01 T03330135  RH  030%=      5-min Rain = 0
KVA1 121638Z 32009KT 33/13 A3012 RMK A01 T03310134  RH  030%=      5-min Rain = 0
KVA1 121639Z 28008KT 33/13 A3012 RMK A01 T03300134  RH  031%=      5-min Rain = 0
KVA1 121640Z 29007KT 33/13 A3012 RMK A01 T03270133  RH  031%=      5-min Rain = 0
KVA1 121641Z 32005KT 33/13 A3012 RMK A01 T03250134  RH  031%=      5-min Rain = 0
KVA1 121642Z 31006KT 33/14 A3012 RMK A01 T03280136  RH  031%=      5-min Rain = 0
KVA1 121643Z 33007KT 33/14 A3012 RMK A01 T03300136  RH  031%=      5-min Rain = 0
KVA1 121644Z 32006KT 33/14 A3012 RMK A01 T03310135  RH  031%=      5-min Rain = 0
KVA1 121645Z 29008KT 33/13 A3012 RMK A01 T03310134  RH  030%=      5-min Rain = 0
KVA1 121646Z 30007G13KT 33/13 A3012 RMK A01 T03310134  RH  030%=      5-min Rain = 0
KVA1 121647Z 29008KT 33/14 A3012 RMK A01 T03290135  RH  031%=      5-min Rain = 0
KVA1 121648Z 33010KT 33/14 A3012 RMK A01 T03310136  RH  031%=      5-min Rain = 0
KVA1 121649Z 33012KT 33/13 A3012 RMK A01 T03320130  RH  029%=      5-min Rain = 0
KVA1 121650Z 32011G17KT 33/13 A3012 RMK A01 T03310130  RH  030%=      5-min Rain = 0
KVA1 121651Z 32014G19KT 33/13 A3012 RMK A01 T03340128  RH  029%=      5-min Rain = 0
KVA1 121652Z 30013KT 33/13 A3012 RMK A01 T03320128  RH  029%=      5-min Rain = 0
KVA1 121653Z 30010KT 33/13 A3012 RMK A01 T03330128  RH  029%=      5-min Rain = 0
KVA1 121654Z 29009KT 33/13 A3012 RMK A01 T03330128  RH  029%=      5-min Rain = 0
KVA1 121655Z 30006KT 34/13 A3011 RMK A01 T03350128  RH  029%=      5-min Rain = 0
KVA1 121656Z 32005KT 34/13 A3011 RMK A01 T03350128  RH  028%=      5-min Rain = 0
KVA1 121657Z 31005G10KT 33/13 A3011 RMK A01 T03340129  RH  029%=      5-min Rain = 0
KVA1 121658Z 32011KT 33/13 A3011 RMK A01 T03340128  RH  029%=      5-min Rain = 0
KVA1 121659Z 31008G14KT 34/12 A3011 RMK A01 T03350123  RH  028%=      5-min Rain = 0
KVA1 121700Z 34006KT 34/13 A3011 RMK A01 T03390127  RH  028%=      5-min Rain = 0
KVA1 121701Z 33008KT 34/13 A3011 RMK A01 T03380128  RH  028%=      5-min Rain = 0
KVA1 121702Z 31010KT 34/13 A3011 RMK A01 T03360126  RH  028%=      5-min Rain = 0
KVA1 121703Z 30009G14KT 34/13 A3011 RMK A01 T03370125  RH  028%=      5-min Rain = 0
KVA1 121704Z 31009KT 34/13 A3011 RMK A01 T03400129  RH  028%=      5-min Rain = 0
KVA1 121705Z 30009KT 35/13 A3011 RMK A01 T03450129  RH  027%=      5-min Rain = 0
KVA1 121706Z 30009KT 34/13 A3011 RMK A01 T03440128  RH  027%=      5-min Rain = 0
KVA1 121707Z 28009G16KT 34/13 A3011 RMK A01 T03420128  RH  027%=      5-min Rain = 0
KVA1 121708Z 30013KT 34/13 A3011 RMK A01 T03410128  RH  028%=      5-min Rain = 0
KVA1 121709Z 29009KT 34/13 A3011 RMK A01 T03410127  RH  027%=      5-min Rain = 0
KVA1 121710Z 29008KT 34/13 A3011 RMK A01 T03380125  RH  027%=      5-min Rain = 0
KVA1 121711Z 28007KT 34/13 A3011 RMK A01 T03350125  RH  028%=      5-min Rain = 0
KVA1 121712Z 32007KT 34/13 A3011 RMK A01 T03360127  RH  028%=      5-min Rain = 0
KVA1 121713Z 30005KT 34/13 A3011 RMK A01 T03380126  RH  028%=      5-min Rain = 0
KVA1 121714Z 29007KT 34/13 A3011 RMK A01 T03350125  RH  028%=      5-min Rain = 0
KVA1 121715Z 30010KT 34/13 A3011 RMK A01 T03350128  RH  029%=      5-min Rain = 0
KVA1 121716Z 30010KT 34/13 A3011 RMK A01 T03390131  RH  028%=      5-min Rain = 0
KVA1 121717Z 33013KT 34/13 A3011 RMK A01 T03410130  RH  028%=      5-min Rain = 0
KVA1 121718Z 32009KT 34/13 A3011 RMK A01 T03420129  RH  028%=      5-min Rain = 0
KVA1 121719Z 31010KT 34/13 A3011 RMK A01 T03440129  RH  027%=      5-min Rain = 0
KVA1 121720Z 32008KT 34/13 A3011 RMK A01 T03440128  RH  027%=      5-min Rain = 0
KVA1 121721Z 33009KT 34/13 A3011 RMK A01 T03410129  RH  028%=      5-min Rain = 0
KVA1 121722Z 30005KT 34/13 A3011 RMK A01 T03400131  RH  028%=      5-min Rain = 0
KVA1 121723Z 31007KT 34/13 A3011 RMK A01 T03410130  RH  028%=      5-min Rain = 0
KVA1 121724Z 32008KT 34/13 A3011 RMK A01 T03410131  RH  028%=      5-min Rain = 0
KVA1 121725Z 34010KT 34/13 A3011 RMK A01 T03430133  RH  028%=      5-min Rain = 0
KVA1 121726Z 34013KT 34/13 A3011 RMK A01 T03430133  RH  028%=      5-min Rain = 0
KVA1 121727Z 35012KT 34/13 A3011 RMK A01 T03410132  RH  028%=      5-min Rain = 0
KVA1 121728Z 35009KT 34/13 A3011 RMK A01 T03400132  RH  028%=      5-min Rain = 0
KVA1 121729Z 34008KT 34/13 A3011 RMK A01 T03380130  RH  029%=      5-min Rain = 0
KVA1 121730Z 00007KT 33/13 A3011 RMK A01 T03340128  RH  029%=      5-min Rain = 0
KVA1 121731Z 02005G10KT 33/13 A3011 RMK A01 T03330129  RH  029%=      5-min Rain = 0
KVA1 121732Z 01011KT 34/13 A3011 RMK A01 T03380129  RH  028%=      5-min Rain = 0
KVA1 121733Z 34014KT 34/13 A3011 RMK A01 T03410129  RH  028%=      5-min Rain = 0
KVA1 121734Z 34010KT 34/13 A3011 RMK A01 T03420130  RH  028%=      5-min Rain = 0
KVA1 121735Z 33011KT 34/13 A3011 RMK A01 T03420130  RH  028%=      5-min Rain = 0
KVA1 121736Z 32010KT 34/13 A3011 RMK A01 T03440132  RH  028%=      5-min Rain = 0
KVA1 121737Z 32007KT 34/13 A3011 RMK A01 T03440128  RH  027%=      5-min Rain = 0
KVA1 121738Z 31006G11KT 34/13 A3011 RMK A01 T03440130  RH  028%=      5-min Rain = 0
KVA1 121739Z 32011KT 35/13 A3011 RMK A01 T03460129  RH  027%=      5-min Rain = 0
KVA1 121740Z 33013KT 35/13 A3011 RMK A01 T03490130  RH  027%=      5-min Rain = 0
KVA1 121741Z 33014KT 35/13 A3011 RMK A01 T03490129  RH  027%=      5-min Rain = 0
KVA1 121742Z 33009KT 35/13 A3011 RMK A01 T03460128  RH  027%=      5-min Rain = 0
KVA1 121743Z 33007G12KT 35/13 A3011 RMK A01 T03480129  RH  027%=      5-min Rain = 0
KVA1 121744Z 34011KT 35/13 A3011 RMK A01 T03460129  RH  027%=      5-min Rain = 0
KVA1 121745Z 35009G14KT 34/13 A3011 RMK A01 T03440128  RH  027%=      5-min Rain = 0
KVA1 121746Z 01006G11KT 34/13 A3011 RMK A01 T03440127  RH  027%=      5-min Rain = 0
KVA1 121747Z 00003KT 34/13 A3011 RMK A01 T03430127  RH  027%=      5-min Rain = 0
KVA1 121748Z 02010G15KT 34/13 A301 RMK A01 T03420127  RH  027%=      5-min Rain = 0
KVA1 121749Z 34010KT 34/13 A301 RMK A01 T03440127  RH  027%=      5-min Rain = 0
KVA1 121750Z 35011KT 35/13 A301 RMK A01 T03500126  RH  026%=      5-min Rain = 0
KVA1 121751Z 00008KT 35/12 A301 RMK A01 T03470124  RH  026%=      5-min Rain = 0
KVA1 121752Z 01006KT 34/12 A301 RMK A01 T03440123  RH  026%=      5-min Rain = 0
KVA1 121753Z 33010KT 34/12 A301 RMK A01 T03440124  RH  026%=      5-min Rain = 0
KVA1 121754Z 32010KT 34/12 A301 RMK A01 T03440121  RH  026%=      5-min Rain = 0
KVA1 121755Z 35007KT 35/12 A301 RMK A01 T03450119  RH  025%=      5-min Rain = 0
KVA1 121756Z 01008KT 35/12 A301 RMK A01 T03450121  RH  026%=      5-min Rain = 0
KVA1 121757Z 00006KT 34/12 A301 RMK A01 T03440121  RH  026%=      5-min Rain = 0
KVA1 121758Z 35010KT 34/12 A301 RMK A01 T03430122  RH  026%=      5-min Rain = 0
KVA1 121759Z 36007KT 34/12 A301 RMK A01 T03440123  RH  026%=      5-min Rain = 0
KVA1 121800Z 00008KT 34/12 A301 RMK A01 T03430124  RH  027%=      5-min Rain = 0
KVA1 121801Z 02006KT 35/13 A301 RMK A01 T03450125  RH  026%=      5-min Rain = 0
KVA1 121802Z 34003KT 35/12 A301 RMK A01 T03450124  RH  026%=      5-min Rain = 0
KVA1 121803Z 35005KT 34/12 A301 RMK A01 T03440124  RH  026%=      5-min Rain = 0
KVA1 121804Z 33004KT 34/12 A301 RMK A01 T03440123  RH  026%=      5-min Rain = 0
KVA1 121805Z 31006KT 35/12 A301 RMK A01 T03450124  RH  026%=      5-min Rain = 0
KVA1 121806Z 28012KT 35/13 A301 RMK A01 T03490125  RH  026%=      5-min Rain = 0
KVA1 121807Z 27009KT 35/12 A301 RMK A01 T03480123  RH  026%=      5-min Rain = 0
KVA1 121808Z 29009KT 35/12 A301 RMK A01 T03450123  RH  026%=      5-min Rain = 0
KVA1 121809Z 32006KT 35/12 A301 RMK A01 T03450121  RH  026%=      5-min Rain = 0
KVA1 121810Z 32006KT 34/12 A301 RMK A01 T03430121  RH  026%=      5-min Rain = 0
KVA1 121811Z 34011KT 35/12 A301 RMK A01 T03460124  RH  026%=      5-min Rain = 0
KVA1 121812Z 35009KT 35/13 A301 RMK A01 T03480125  RH  026%=      5-min Rain = 0
KVA1 121813Z 35007KT 35/13 A301 RMK A01 T03510125  RH  026%=      5-min Rain = 0
KVA1 121814Z 34008KT 35/13 A301 RMK A01 T03510126  RH  026%=      5-min Rain = 0
KVA1 121815Z 31006KT 35/12 A301 RMK A01 T03510124  RH  026%=      5-min Rain = 0
KVA1 121816Z 28005KT 35/12 A301 RMK A01 T03510124  RH  025%=      5-min Rain = 0
KVA1 121817Z 30009G15KT 35/12 A301 RMK A01 T03520123  RH  025%=      5-min Rain = 0
KVA1 121818Z 32007KT 35/12 A301 RMK A01 T03530123  RH  025%=      5-min Rain = 0
KVA1 121819Z 32006KT 35/12 A301 RMK A01 T03510122  RH  025%=      5-min Rain = 0
KVA1 121820Z 28008G13KT 35/12 A301 RMK A01 T03490122  RH  025%=      5-min Rain = 0
KVA1 121821Z 26007KT 35/12 A301 RMK A01 T03470121  RH  026%=      5-min Rain = 0
KVA1 121822Z 23003KT 34/12 A301 RMK A01 T03440121  RH  026%=      5-min Rain = 0
KVA1 121823Z 18003KT 34/12 A301 RMK A01 T03440122  RH  026%=      5-min Rain = 0
KVA1 121824Z 17001KT 35/12 A301 RMK A01 T03450122  RH  026%=      5-min Rain = 0
KVA1 121825Z 35006G11KT 35/12 A301 RMK A01 T03480124  RH  026%=      5-min Rain = 0
KVA1 121826Z 00007KT 35/12 A3009 RMK A01 T03500122  RH  025%=      5-min Rain = 0
KVA1 121827Z 34008KT 35/12 A3009 RMK A01 T03510122  RH  025%=      5-min Rain = 0
KVA1 121828Z 31007G12KT 35/12 A3009 RMK A01 T03530122  RH  025%=      5-min Rain = 0
KVA1 121829Z 28011KT 36/12 A301 RMK A01 T03560119  RH  024%=      5-min Rain = 0
KVA1 121830Z 30010KT 36/12 A3009 RMK A01 T03550119  RH  024%=      5-min Rain = 0
KVA1 121831Z 27011KT 36/12 A3009 RMK A01 T03550119  RH  024%=      5-min Rain = 0
KVA1 121832Z 28009G14KT 36/12 A3009 RMK A01 T03550120  RH  024%=      5-min Rain = 0
KVA1 121833Z 27011KT 36/12 A3009 RMK A01 T03580119  RH  024%=      5-min Rain = 0
KVA1 121834Z 26009KT 36/12 A301 RMK A01 T03550117  RH  024%=      5-min Rain = 0
KVA1 121835Z 26005KT 35/12 A301 RMK A01 T03540118  RH  024%=      5-min Rain = 0
KVA1 121836Z 26005KT 35/12 A3009 RMK A01 T03530117  RH  024%=      5-min Rain = 0
KVA1 121837Z 26007G12KT 35/12 A3009 RMK A01 T03510118  RH  024%=      5-min Rain = 0
KVA1 121838Z 27009G14KT 36/12 A3009 RMK A01 T03570121  RH  024%=      5-min Rain = 0
KVA1 121839Z 27011KT 36/12 A3009 RMK A01 T03610118  RH  023%=      5-min Rain = 0
KVA1 121840Z 28012KT 36/12 A3009 RMK A01 T03630115  RH  023%=      5-min Rain = 0
KVA1 121841Z 29012KT 36/12 A3009 RMK A01 T03620117  RH  023%=      5-min Rain = 0
KVA1 121842Z 27008KT 36/12 A3009 RMK A01 T03580117  RH  023%=      5-min Rain = 0
KVA1 121843Z 28002KT 35/12 A3009 RMK A01 T03540118  RH  024%=      5-min Rain = 0
KVA1 121844Z 28011KT 35/12 A3009 RMK A01 T03540117  RH  024%=      5-min Rain = 0
KVA1 121845Z 28007KT 35/12 A3009 RMK A01 T03500115  RH  024%=      5-min Rain = 0
KVA1 121846Z 29010KT 35/12 A3009 RMK A01 T03510118  RH  024%=      5-min Rain = 0
KVA1 121847Z 27011KT 36/12 A3009 RMK A01 T03560119  RH  024%=      5-min Rain = 0
KVA1 121848Z 28011KT 36/12 A3009 RMK A01 T03570119  RH  024%=      5-min Rain = 0
KVA1 121849Z 30008KT 36/12 A3009 RMK A01 T03580119  RH  024%=      5-min Rain = 0
KVA1 121850Z 29011KT 36/12 A3009 RMK A01 T03590117  RH  023%=      5-min Rain = 0
KVA1 121851Z 32008G18KT 36/12 A3009 RMK A01 T03590118  RH  023%=      5-min Rain = 0
KVA1 121852Z 32010G17KT 36/12 A3009 RMK A01 T03610116  RH  023%=      5-min Rain = 0
KVA1 121853Z 31009KT 36/12 A3009 RMK A01 T03620116  RH  023%=      5-min Rain = 0
KVA1 121854Z 31009KT 37/11 A3009 RMK A01 T03660112  RH  022%=      5-min Rain = 0
KVA1 121855Z 28011G17KT 37/11 A3009 RMK A01 T03680114  RH  022%=      5-min Rain = 0
KVA1 121856Z 29014KT 37/11 A3009 RMK A01 T03670111  RH  021%=      5-min Rain = 0
KVA1 121857Z 30011KT 36/11 A3009 RMK A01 T03620110  RH  022%=      5-min Rain = 0
KVA1 121858Z 29008KT 36/11 A3009 RMK A01 T03610110  RH  022%=      5-min Rain = 0
KVA1 121859Z 29007KT 36/11 A3009 RMK A01 T03620112  RH  022%=      5-min Rain = 0
KVA1 121900Z 28010G16KT 36/11 A3008 RMK A01 T03630114  RH  022%=      5-min Rain = 0
KVA1 121901Z 30013G20KT 36/12 A3008 RMK A01 T03640115  RH  022%=      5-min Rain = 0
KVA1 121902Z 31011KT 36/11 A3008 RMK A01 T03640112  RH  022%=      5-min Rain = 0
KVA1 121903Z 30008KT 36/11 A3008 RMK A01 T03600110  RH  022%=      5-min Rain = 0
KVA1 121904Z 28012KT 36/11 A3008 RMK A01 T03610113  RH  022%=      5-min Rain = 0
KVA1 121905Z 26011KT 36/11 A3008 RMK A01 T03600111  RH  022%=      5-min Rain = 0
KVA1 121906Z 29010KT 36/11 A3008 RMK A01 T03580111  RH  022%=      5-min Rain = 0
KVA1 121907Z 30009KT 36/11 A3008 RMK A01 T03570110  RH  022%=      5-min Rain = 0
KVA1 121908Z 29006KT 36/11 A3008 RMK A01 T03560111  RH  023%=      5-min Rain = 0
KVA1 121909Z 28005KT 36/11 A3008 RMK A01 T03580111  RH  023%=      5-min Rain = 0
KVA1 121910Z 28011G16KT 36/12 A3008 RMK A01 T03600116  RH  023%=      5-min Rain = 0
KVA1 121911Z 30011G16KT 36/12 A3008 RMK A01 T03640118  RH  023%=      5-min Rain = 0
KVA1 121912Z 31010KT 36/12 A3008 RMK A01 T03620117  RH  023%=      5-min Rain = 0
KVA1 121913Z 31012KT 36/12 A3008 RMK A01 T03610118  RH  023%=      5-min Rain = 0
KVA1 121914Z 33009KT 36/12 A3008 RMK A01 T03600117  RH  023%=      5-min Rain = 0
KVA1 121915Z 35006KT 36/12 A3008 RMK A01 T03570116  RH  023%=      5-min Rain = 0
KVA1 121916Z 29005KT 36/12 A3008 RMK A01 T03550116  RH  024%=      5-min Rain = 0
KVA1 121917Z 28010G15KT 36/12 A3008 RMK A01 T03560116  RH  024%=      5-min Rain = 0
KVA1 121918Z 28011G17KT 36/12 A3008 RMK A01 T03590116  RH  023%=      5-min Rain = 0
KVA1 121919Z 27010KT 36/11 A3008 RMK A01 T03620113  RH  022%=      5-min Rain = 0
KVA1 121920Z 28008KT 36/11 A3008 RMK A01 T03600111  RH  022%=      5-min Rain = 0
KVA1 121921Z 27010KT 36/11 A3008 RMK A01 T03600114  RH  023%=      5-min Rain = 0
KVA1 121922Z 29008KT 36/12 A3008 RMK A01 T03620116  RH  023%=      5-min Rain = 0
KVA1 121923Z 31007KT 37/12 A3008 RMK A01 T03680116  RH  022%=      5-min Rain = 0
KVA1 121924Z 31008KT 37/11 A3008 RMK A01 T03650113  RH  022%=      5-min Rain = 0
KVA1 121925Z 28008KT 36/11 A3008 RMK A01 T03610114  RH  023%=      5-min Rain = 0
KVA1 121926Z 28008KT 36/11 A3008 RMK A01 T03620114  RH  022%=      5-min Rain = 0
KVA1 121927Z 27008KT 36/12 A3008 RMK A01 T03620116  RH  023%=      5-min Rain = 0
KVA1 121928Z 26005KT 36/12 A3007 RMK A01 T03640115  RH  022%=      5-min Rain = 0
KVA1 121929Z 26007KT 37/11 A3007 RMK A01 T03670114  RH  022%=      5-min Rain = 0
KVA1 121930Z 26008KT 37/11 A3007 RMK A01 T03650114  RH  022%=      5-min Rain = 0
KVA1 121931Z 28011KT 37/12 A3007 RMK A01 T03670115  RH  022%=      5-min Rain = 0
KVA1 121932Z 30010KT 37/12 A3007 RMK A01 T03680115  RH  022%=      5-min Rain = 0
KVA1 121933Z 28010KT 37/12 A3007 RMK A01 T03660115  RH  022%=      5-min Rain = 0
KVA1 121934Z 29010KT 37/12 A3007 RMK A01 T03670117  RH  022%=      5-min Rain = 0
KVA1 121935Z 27005KT 37/12 A3008 RMK A01 T03680118  RH  022%=      5-min Rain = 0
KVA1 121936Z 27006KT 37/12 A3007 RMK A01 T03670117  RH  022%=      5-min Rain = 0
KVA1 121937Z 29003KT 36/11 A3007 RMK A01 T03640114  RH  022%=      5-min Rain = 0
KVA1 121938Z 32008G14KT 36/11 A3007 RMK A01 T03630114  RH  022%=      5-min Rain = 0
KVA1 121939Z 32012KT 37/11 A3007 RMK A01 T03650108  RH  021%=      5-min Rain = 0
KVA1 121940Z 31008KT 37/11 A3007 RMK A01 T03670107  RH  021%=      5-min Rain = 0
KVA1 121941Z 29006KT 37/11 A3007 RMK A01 T03660111  RH  021%=      5-min Rain = 0
KVA1 121942Z 31009KT 37/11 A3007 RMK A01 T03700113  RH  021%=      5-min Rain = 0
KVA1 121943Z 33010KT 37/11 A3007 RMK A01 T03690111  RH  021%=      5-min Rain = 0
KVA1 121944Z 34011KT 36/11 A3007 RMK A01 T03630105  RH  021%=      5-min Rain = 0
KVA1 121945Z 33008KT 36/11 A3007 RMK A01 T03620106  RH  021%=      5-min Rain = 0
KVA1 121946Z 32005KT 36/11 A3007 RMK A01 T03630107  RH  021%=      5-min Rain = 0
KVA1 121947Z 36003KT 36/10 A3007 RMK A01 T03600102  RH  021%=      5-min Rain = 0
KVA1 121948Z 03001KT 36/10 A3007 RMK A01 T03570101  RH  021%=      5-min Rain = 0
KVA1 121949Z 00001KT 36/10 A3007 RMK A01 T03580104  RH  021%=      5-min Rain = 0
KVA1 121950Z 30003KT 36/11 A3007 RMK A01 T03590106  RH  022%=      5-min Rain = 0
KVA1 121951Z 29007KT 36/11 A3007 RMK A01 T03600111  RH  022%=      5-min Rain = 0
KVA1 121952Z 33010KT 36/11 A3007 RMK A01 T03600113  RH  023%=      5-min Rain = 0
KVA1 121953Z 32008KT 36/12 A3007 RMK A01 T03630115  RH  023%=      5-min Rain = 0
KVA1 121954Z 30010KT 36/11 A3007 RMK A01 T03640114  RH  022%=      5-min Rain = 0
KVA1 121955Z 29013KT 37/11 A3007 RMK A01 T03680114  RH  022%=      5-min Rain = 0
KVA1 121956Z 29010KT 37/11 A3007 RMK A01 T03670109  RH  021%=      5-min Rain = 0
KVA1 121957Z 32009KT 37/11 A3007 RMK A01 T03650110  RH  021%=      5-min Rain = 0
KVA1 121958Z 30012KT 37/11 A3007 RMK A01 T03700111  RH  021%=      5-min Rain = 0
KVA1 121959Z 30011KT 37/12 A3007 RMK A01 T03740116  RH  021%=      5-min Rain = 0
KVA1 122000Z 30007KT 37/12 A3007 RMK A01 T03720115  RH  021%=      5-min Rain = 0
KVA1 122001Z 30007KT 37/11 A3007 RMK A01 T03690114  RH  022%=      5-min Rain = 0
KVA1 122002Z 31010KT 37/12 A3007 RMK A01 T03700116  RH  022%=      5-min Rain = 0
KVA1 122003Z 32009KT 37/11 A3007 RMK A01 T03710113  RH  021%=      5-min Rain = 0
KVA1 122004Z 28009KT 37/11 A3007 RMK A01 T03700113  RH  021%=      5-min Rain = 0
KVA1 122005Z 26007KT 37/11 A3006 RMK A01 T03660112  RH  022%=      5-min Rain = 0
KVA1 122006Z 26007KT 36/11 A3006 RMK A01 T03630112  RH  022%=      5-min Rain = 0
KVA1 122007Z 28009KT 36/11 A3006 RMK A01 T03630113  RH  022%=      5-min Rain = 0
KVA1 122008Z 31009KT 37/12 A3006 RMK A01 T03650117  RH  022%=      5-min Rain = 0
KVA1 122009Z 28006KT 37/12 A3006 RMK A01 T03710119  RH  022%=      5-min Rain = 0
KVA1 122010Z 26008KT 38/12 A3006 RMK A01 T03750117  RH  021%=      5-min Rain = 0
KVA1 122011Z 27005KT 37/11 A3006 RMK A01 T03700114  RH  021%=      5-min Rain = 0
KVA1 122012Z 30011G16KT 37/12 A3006 RMK A01 T03680117  RH  022%=      5-min Rain = 0
KVA1 122013Z 29008KT 37/12 A3006 RMK A01 T03690117  RH  022%=      5-min Rain = 0
KVA1 122014Z 29007KT 37/12 A3006 RMK A01 T03680116  RH  022%=      5-min Rain = 0
KVA1 122015Z 26006KT 37/12 A3006 RMK A01 T03670116  RH  022%=      5-min Rain = 0
KVA1 122016Z 34006KT 37/12 A3006 RMK A01 T03690117  RH  022%=      5-min Rain = 0
KVA1 122017Z 33010G15KT 37/12 A3006 RMK A01 T03720117  RH  022%=      5-min Rain = 0
KVA1 122018Z 33010KT 37/12 A3006 RMK A01 T03720116  RH  022%=      5-min Rain = 0
KVA1 122019Z 31008KT 37/12 A3006 RMK A01 T03700117  RH  022%=      5-min Rain = 0
KVA1 122020Z 30010KT 37/12 A3006 RMK A01 T03680116  RH  022%=      5-min Rain = 0
KVA1 122021Z 32010KT 37/12 A3006 RMK A01 T03660115  RH  022%=      5-min Rain = 0
KVA1 122022Z 33006KT 37/12 A3006 RMK A01 T03650117  RH  022%=      5-min Rain = 0
KVA1 122023Z 31010KT 37/12 A3006 RMK A01 T03660117  RH  022%=      5-min Rain = 0
KVA1 122024Z 31008KT 37/12 A3005 RMK A01 T03670116  RH  022%=      5-min Rain = 0
KVA1 122025Z 31006KT 37/12 A3005 RMK A01 T03650116  RH  022%=      5-min Rain = 0
KVA1 122026Z 32009KT 36/12 A3005 RMK A01 T03630115  RH  022%=      5-min Rain = 0
KVA1 122027Z 32007KT 36/12 A3005 RMK A01 T03630115  RH  022%=      5-min Rain = 0
KVA1 122028Z 34007KT 36/12 A3005 RMK A01 T03640116  RH  022%=      5-min Rain = 0
KVA1 122029Z 28010G22KT 37/12 A3005 RMK A01 T03690116  RH  022%=      5-min Rain = 0
KVA1 122030Z 26011KT 38/12 A3005 RMK A01 T03750116  RH  021%=      5-min Rain = 0
KVA1 122031Z 26012KT 38/12 A3005 RMK A01 T03750115  RH  021%=      5-min Rain = 0
KVA1 122032Z 23009KT 37/12 A3005 RMK A01 T03730115  RH  021%=      5-min Rain = 0
KVA1 122033Z 28010G18KT 37/12 A3004 RMK A01 T03710115  RH  021%=      5-min Rain = 0
KVA1 122034Z 28009KT 38/12 A3005 RMK A01 T03760119  RH  022%=      5-min Rain = 0
KVA1 122035Z 28008KT 38/12 A3005 RMK A01 T03800119  RH  021%=      5-min Rain = 0
KVA1 122036Z 27006KT 37/12 A3005 RMK A01 T03740115  RH  021%=      5-min Rain = 0
KVA1 122037Z 29008KT 37/12 A3005 RMK A01 T03700115  RH  022%=      5-min Rain = 0
KVA1 122038Z 29006KT 37/12 A3005 RMK A01 T03710116  RH  022%=      5-min Rain = 0
KVA1 122039Z 30005KT 38/12 A3005 RMK A01 T03750118  RH  021%=      5-min Rain = 0
KVA1 122040Z 35008KT 37/11 A3004 RMK A01 T03740113  RH  021%=      5-min Rain = 0
KVA1 122041Z 32010KT 37/11 A3004 RMK A01 T03730112  RH  021%=      5-min Rain = 0
KVA1 122042Z 33006KT 37/11 A3004 RMK A01 T03740114  RH  021%=      5-min Rain = 0
KVA1 122043Z 33007KT 38/11 A3004 RMK A01 T03760111  RH  020%=      5-min Rain = 0
KVA1 122044Z 30011KT 38/11 A3004 RMK A01 T03760109  RH  020%=      5-min Rain = 0
KVA1 122045Z 35009KT 38/11 A3004 RMK A01 T03770111  RH  020%=      5-min Rain = 0
KVA1 122046Z 33010KT 38/11 A3004 RMK A01 T03780112  RH  020%=      5-min Rain = 0
KVA1 122047Z 30008KT 38/11 A3004 RMK A01 T03760109  RH  020%=      5-min Rain = 0
KVA1 122048Z 33008G14KT 38/11 A3004 RMK A01 T03780109  RH  020%=      5-min Rain = 0
KVA1 122049Z 31012KT 38/11 A3004 RMK A01 T03800110  RH  020%=      5-min Rain = 0
KVA1 122050Z 30013KT 38/11 A3004 RMK A01 T03780110  RH  020%=      5-min Rain = 0
KVA1 122051Z 30007KT 38/11 A3004 RMK A01 T03760107  RH  020%=      5-min Rain = 0
KVA1 122052Z 34004KT 38/11 A3004 RMK A01 T03750109  RH  020%=      5-min Rain = 0
KVA1 122053Z 34004KT 37/11 A3004 RMK A01 T03720108  RH  020%=      5-min Rain = 0
KVA1 122054Z 27008KT 37/11 A3004 RMK A01 T03690110  RH  021%=      5-min Rain = 0
KVA1 122055Z 26007KT 37/11 A3004 RMK A01 T03710110  RH  021%=      5-min Rain = 0
KVA1 122056Z 27011KT 38/11 A3004 RMK A01 T03770112  RH  020%=      5-min Rain = 0
KVA1 122057Z 30011KT 38/11 A3004 RMK A01 T03810113  RH  020%=      5-min Rain = 0
KVA1 122058Z 29010KT 38/11 A3004 RMK A01 T03810111  RH  020%=      5-min Rain = 0
KVA1 122059Z 28009KT 38/11 A3004 RMK A01 T03770109  RH  020%=      5-min Rain = 0
KVA1 122100Z 30006KT 38/11 A3003 RMK A01 T03750108  RH  020%=      5-min Rain = 0
KVA1 122101Z 31004KT 37/11 A3003 RMK A01 T03740106  RH  020%=      5-min Rain = 0
KVA1 122102Z 29006KT 37/11 A3003 RMK A01 T03730107  RH  020%=      5-min Rain = 0
KVA1 122103Z 30008KT 37/11 A3003 RMK A01 T03700106  RH  020%=      5-min Rain = 0
KVA1 122104Z 32011KT 37/10 A3003 RMK A01 T03730099  RH  019%=      5-min Rain = 0
KVA1 122105Z 33010G15KT 38/09 A3003 RMK A01 T03760093  RH  018%=      5-min Rain = 0
KVA1 122106Z 32013KT 38/09 A3003 RMK A01 T03750094  RH  018%=      5-min Rain = 0
KVA1 122107Z 33010KT 37/10 A3003 RMK A01 T03740095  RH  018%=      5-min Rain = 0
KVA1 122108Z 33006G11KT 37/10 A3003 RMK A01 T03730097  RH  019%=      5-min Rain = 0
KVA1 122109Z 31009KT 38/10 A3003 RMK A01 T03750100  RH  019%=      5-min Rain = 0
KVA1 122110Z 29007KT 37/10 A3003 RMK A01 T03740099  RH  019%=      5-min Rain = 0
KVA1 122111Z 26005KT 37/10 A3003 RMK A01 T03680098  RH  019%=      5-min Rain = 0
KVA1 122112Z 29004KT 37/10 A3003 RMK A01 T03660099  RH  020%=      5-min Rain = 0
KVA1 122113Z 31006KT 37/10 A3003 RMK A01 T03690102  RH  020%=      5-min Rain = 0
KVA1 122114Z 31006KT 37/10 A3003 RMK A01 T03730101  RH  019%=      5-min Rain = 0
KVA1 122115Z 31008KT 38/10 A3003 RMK A01 T03760100  RH  019%=      5-min Rain = 0
KVA1 122116Z 33010KT 38/10 A3003 RMK A01 T03750098  RH  019%=      5-min Rain = 0
KVA1 122117Z 34008KT 37/10 A3003 RMK A01 T03720098  RH  019%=      5-min Rain = 0
KVA1 122118Z 36008KT 37/10 A3003 RMK A01 T03730095  RH  019%=      5-min Rain = 0
KVA1 122119Z 36009KT 38/10 A3003 RMK A01 T03750096  RH  019%=      5-min Rain = 0
KVA1 122120Z 34009KT 38/10 A3003 RMK A01 T03770097  RH  018%=      5-min Rain = 0
KVA1 122121Z 33012KT 38/10 A3003 RMK A01 T03780100  RH  019%=      5-min Rain = 0
KVA1 122122Z 33012KT 38/10 A3003 RMK A01 T03820102  RH  019%=      5-min Rain = 0
KVA1 122123Z 34011KT 38/10 A3002 RMK A01 T03830099  RH  018%=      5-min Rain = 0
KVA1 122124Z 31008KT 38/10 A3003 RMK A01 T03800097  RH  018%=      5-min Rain = 0
KVA1 122125Z 27010KT 38/10 A3003 RMK A01 T03790101  RH  019%=      5-min Rain = 0
KVA1 122126Z 26009KT 38/10 A3003 RMK A01 T03800095  RH  018%=      5-min Rain = 0
KVA1 122127Z 27006KT 38/10 A3002 RMK A01 T03780095  RH  018%=      5-min Rain = 0
KVA1 122128Z 26007KT 38/10 A3002 RMK A01 T03770100  RH  019%=      5-min Rain = 0
KVA1 122129Z 25010KT 38/10 A3002 RMK A01 T03780104  RH  019%=      5-min Rain = 0
KVA1 122130Z 25009KT 38/11 A3002 RMK A01 T03820107  RH  019%=      5-min Rain = 0
KVA1 122131Z 30007KT 38/11 A3002 RMK A01 T03840107  RH  019%=      5-min Rain = 0
KVA1 122132Z 33009KT 38/11 A3002 RMK A01 T03840105  RH  019%=      5-min Rain = 0
KVA1 122133Z 34007KT 38/10 A3002 RMK A01 T03760104  RH  019%=      5-min Rain = 0
KVA1 122134Z 31005KT 38/11 A3002 RMK A01 T03750105  RH  020%=      5-min Rain = 0
KVA1 122135Z 28008KT 38/11 A3002 RMK A01 T03760106  RH  020%=      5-min Rain = 0
KVA1 122136Z 26004KT 38/11 A3002 RMK A01 T03780105  RH  019%=      5-min Rain = 0
KVA1 122137Z 28009KT 38/11 A3002 RMK A01 T03760105  RH  020%=      5-min Rain = 0
KVA1 122138Z 29010KT 38/11 A3002 RMK A01 T03790107  RH  020%=      5-min Rain = 0
KVA1 122139Z 29012KT 38/11 A3002 RMK A01 T03800107  RH  019%=      5-min Rain = 0
KVA1 122140Z 28011KT 38/11 A3002 RMK A01 T03780108  RH  020%=      5-min Rain = 0
KVA1 122141Z 27007KT 38/11 A3002 RMK A01 T03750107  RH  020%=      5-min Rain = 0
KVA1 122142Z 23007KT 38/11 A3002 RMK A01 T03750107  RH  020%=      5-min Rain = 0
KVA1 122143Z 25007KT 38/11 A3002 RMK A01 T03760107  RH  020%=      5-min Rain = 0
KVA1 122144Z 29009G15KT 38/11 A3002 RMK A01 T03770106  RH  020%=      5-min Rain = 0
KVA1 122145Z 29011KT 38/11 A3002 RMK A01 T03780107  RH  020%=      5-min Rain = 0
KVA1 122146Z 29010KT 38/11 A3002 RMK A01 T03760105  RH  020%=      5-min Rain = 0
KVA1 122147Z 28007KT 38/11 A3002 RMK A01 T03760106  RH  020%=      5-min Rain = 0
KVA1 122148Z 30008KT 38/11 A3002 RMK A01 T03770106  RH  019%=      5-min Rain = 0
KVA1 122149Z 28007KT 38/11 A3002 RMK A01 T03800106  RH  019%=      5-min Rain = 0
KVA1 122150Z 28007KT 38/11 A3002 RMK A01 T03800108  RH  019%=      5-min Rain = 0
KVA1 122151Z 31006KT 38/11 A3002 RMK A01 T03770109  RH  020%=      5-min Rain = 0
KVA1 122152Z 33008KT 38/11 A3002 RMK A01 T03780110  RH  020%=      5-min Rain = 0
KVA1 122153Z 34011KT 38/11 A3002 RMK A01 T03790111  RH  020%=      5-min Rain = 0
KVA1 122154Z 34012KT 38/11 A3002 RMK A01 T03770113  RH  020%=      5-min Rain = 0
KVA1 122155Z 32009KT 38/11 A3002 RMK A01 T03750113  RH  021%=      5-min Rain = 0
KVA1 122156Z 28006KT 38/11 A3002 RMK A01 T03750114  RH  021%=      5-min Rain = 0
KVA1 122157Z 27006KT 37/11 A3001 RMK A01 T03740114  RH  021%=      5-min Rain = 0
KVA1 122158Z 26008KT 38/12 A3001 RMK A01 T03750115  RH  021%=      5-min Rain = 0
KVA1 122159Z 26007KT 37/11 A3001 RMK A01 T03720113  RH  021%=      5-min Rain = 0
KVA1 122200Z 29008KT 37/11 A3001 RMK A01 T03680113  RH  021%=      5-min Rain = 0
KVA1 122201Z 31007KT 37/11 A3001 RMK A01 T03660110  RH  021%=      5-min Rain = 0
KVA1 122202Z 27009KT 37/11 A3001 RMK A01 T03650110  RH  022%=      5-min Rain = 0
KVA1 122203Z 27006KT 36/11 A3001 RMK A01 T03640110  RH  022%=      5-min Rain = 0
KVA1 122204Z 29005KT 36/11 A3001 RMK A01 T03630110  RH  022%=      5-min Rain = 0
KVA1 122205Z 32009KT 36/11 A3001 RMK A01 T03640111  RH  022%=      5-min Rain = 0
KVA1 122206Z 30009KT 37/11 A3001 RMK A01 T03670114  RH  022%=      5-min Rain = 0
KVA1 122207Z 31009KT 37/12 A3001 RMK A01 T03690115  RH  022%=      5-min Rain = 0
KVA1 122208Z 30011G18KT 37/12 A3001 RMK A01 T03690115  RH  022%=      5-min Rain = 0
KVA1 122209Z 30014KT 37/11 A3001 RMK A01 T03700114  RH  022%=      5-min Rain = 0
KVA1 122210Z 29010KT 37/11 A3001 RMK A01 T03730114  RH  021%=      5-min Rain = 0
KVA1 122211Z 30011KT 38/11 A3001 RMK A01 T03750113  RH  021%=      5-min Rain = 0
KVA1 122212Z 30009KT 37/11 A3001 RMK A01 T03740112  RH  021%=      5-min Rain = 0
KVA1 122213Z 32007KT 38/11 A3001 RMK A01 T03750112  RH  021%=      5-min Rain = 0
KVA1 122214Z 29006KT 38/11 A3001 RMK A01 T03750112  RH  021%=      5-min Rain = 0
KVA1 122215Z 31007KT 38/11 A3001 RMK A01 T03760112  RH  021%=      5-min Rain = 0
KVA1 122216Z 33009KT 37/11 A3001 RMK A01 T03740110  RH  020%=      5-min Rain = 0
KVA1 122217Z 33010KT 38/11 A3001 RMK A01 T03770108  RH  020%=      5-min Rain = 0
KVA1 122218Z 31009KT 38/11 A3001 RMK A01 T03800108  RH  020%=      5-min Rain = 0
KVA1 122219Z 29009KT 38/11 A3001 RMK A01 T03800107  RH  019%=      5-min Rain = 0
KVA1 122220Z 28007KT 38/11 A3001 RMK A01 T03790105  RH  019%=      5-min Rain = 0
KVA1 122221Z 28009G14KT 38/11 A30 RMK A01 T03780105  RH  019%=      5-min Rain = 0
KVA1 122222Z 29011KT 38/11 A3001 RMK A01 T03770105  RH  019%=      5-min Rain = 0
KVA1 122223Z 28008KT 38/10 A30 RMK A01 T03750103  RH  019%=      5-min Rain = 0
KVA1 122224Z 29009KT 38/10 A30 RMK A01 T03750103  RH  019%=      5-min Rain = 0
KVA1 122225Z 29007G12KT 38/10 A30 RMK A01 T03750104  RH  019%=      5-min Rain = 0
KVA1 122226Z 29008KT 38/10 A30 RMK A01 T03760102  RH  019%=      5-min Rain = 0
KVA1 122227Z 27010G15KT 38/11 A30 RMK A01 T03770105  RH  019%=      5-min Rain = 0
KVA1 122228Z 27010KT 38/11 A30 RMK A01 T03770105  RH  019%=      5-min Rain = 0
KVA1 122229Z 30007G14KT 38/10 A30 RMK A01 T03750104  RH  020%=      5-min Rain = 0
KVA1 122230Z 29012KT 37/11 A30 RMK A01 T03720105  RH  020%=      5-min Rain = 0
KVA1 122231Z 30010KT 37/11 A30 RMK A01 T03730105  RH  020%=      5-min Rain = 0
KVA1 122232Z 28011KT 38/11 A30 RMK A01 T03760107  RH  020%=      5-min Rain = 0
KVA1 122233Z 27008KT 38/11 A30 RMK A01 T03760107  RH  020%=      5-min Rain = 0
KVA1 122234Z 28009KT 38/11 A30 RMK A01 T03780108  RH  020%=      5-min Rain = 0
KVA1 122235Z 29011KT 38/11 A30 RMK A01 T03800106  RH  019%=      5-min Rain = 0
KVA1 122236Z 28011KT 38/11 A30 RMK A01 T03780106  RH  019%=      5-min Rain = 0
KVA1 122237Z 29010KT 37/11 A30 RMK A01 T03740106  RH  020%=      5-min Rain = 0
KVA1 122238Z 29008KT 37/11 A30 RMK A01 T03730106  RH  020%=      5-min Rain = 0
KVA1 122239Z 29006KT 38/11 A30 RMK A01 T03750107  RH  020%=      5-min Rain = 0
KVA1 122240Z 29008KT 38/11 A30 RMK A01 T03770108  RH  020%=      5-min Rain = 0
KVA1 122241Z 29008G13KT 38/11 A30 RMK A01 T03810109  RH  020%=      5-min Rain = 0
KVA1 122242Z 30007KT 38/11 A30 RMK A01 T03830108  RH  019%=      5-min Rain = 0
KVA1 122243Z 31010KT 38/11 A30 RMK A01 T03840108  RH  019%=      5-min Rain = 0
KVA1 122244Z 30012KT 38/11 A30 RMK A01 T03840108  RH  019%=      5-min Rain = 0
KVA1 122245Z 30009KT 38/11 A30 RMK A01 T03810107  RH  019%=      5-min Rain = 0
KVA1 122246Z 28009KT 38/11 A30 RMK A01 T03790109  RH  020%=      5-min Rain = 0
KVA1 122247Z 28011KT 38/11 A30 RMK A01 T03780107  RH  020%=      5-min Rain = 0
KVA1 122248Z 27009KT 38/11 A30 RMK A01 T03770105  RH  020%=      5-min Rain = 0
KVA1 122249Z 28009KT 38/10 A2999 RMK A01 T03750104  RH  020%=      5-min Rain = 0
KVA1 122250Z 28010KT 37/11 A2999 RMK A01 T03740105  RH  020%=      5-min Rain = 0
KVA1 122251Z 29008KT 38/11 A2999 RMK A01 T03750106  RH  020%=      5-min Rain = 0
KVA1 122252Z 28008KT 38/11 A2999 RMK A01 T03790107  RH  019%=      5-min Rain = 0
KVA1 122253Z 29010KT 38/10 A2999 RMK A01 T03820104  RH  019%=      5-min Rain = 0
KVA1 122254Z 29011KT 38/10 A2999 RMK A01 T03790102  RH  019%=      5-min Rain = 0
KVA1 122255Z 30011KT 38/10 A2999 RMK A01 T03780103  RH  019%=      5-min Rain = 0
KVA1 122256Z 31010KT 38/10 A2999 RMK A01 T03780100  RH  019%=      5-min Rain = 0
KVA1 122257Z 29007KT 38/10 A2999 RMK A01 T03770100  RH  019%=      5-min Rain = 0
KVA1 122258Z 28006KT 38/10 A2999 RMK A01 T03770100  RH  019%=      5-min Rain = 0
KVA1 122259Z 31011KT 38/10 A2999 RMK A01 T03760102  RH  019%=      5-min Rain = 0
KVA1 122300Z 29010KT 38/10 A2999 RMK A01 T03760104  RH  020%=      5-min Rain = 0
KVA1 122301Z 30012KT 38/10 A2999 RMK A01 T03760103  RH  019%=      5-min Rain = 0
KVA1 122302Z 28010KT 38/10 A2999 RMK A01 T03750101  RH  019%=      5-min Rain = 0
KVA1 122303Z 28012KT 38/10 A2999 RMK A01 T03750098  RH  019%=      5-min Rain = 0
KVA1 122304Z 28012KT 38/10 A2999 RMK A01 T03760101  RH  019%=      5-min Rain = 0
KVA1 122305Z 28009KT 38/10 A2999 RMK A01 T03750103  RH  019%=      5-min Rain = 0
KVA1 122306Z 29008KT 38/11 A2999 RMK A01 T03760105  RH  020%=      5-min Rain = 0
KVA1 122307Z 29010KT 38/10 A2999 RMK A01 T03790103  RH  019%=      5-min Rain = 0
KVA1 122308Z 28006KT 38/10 A2999 RMK A01 T03780102  RH  019%=      5-min Rain = 0
KVA1 122309Z 28007KT 38/10 A2999 RMK A01 T03780101  RH  019%=      5-min Rain = 0
KVA1 122310Z 28005KT 38/10 A2999 RMK A01 T03770098  RH  019%=      5-min Rain = 0
KVA1 122311Z 23004KT 38/10 A2999 RMK A01 T03750098  RH  019%=      5-min Rain = 0
KVA1 122312Z 18004KT 37/10 A2999 RMK A01 T03730099  RH  019%=      5-min Rain = 0
KVA1 122313Z 23007KT 37/10 A2999 RMK A01 T03710100  RH  019%=      5-min Rain = 0
KVA1 122314Z 25008KT 37/10 A2999 RMK A01 T03720100  RH  019%=      5-min Rain = 0
KVA1 122315Z 26007KT 37/10 A2999 RMK A01 T03730100  RH  019%=      5-min Rain = 0
KVA1 122316Z 23006KT 37/10 A2998 RMK A01 T03740101  RH  019%=      5-min Rain = 0
KVA1 122317Z 23004KT 38/10 A2998 RMK A01 T03750101  RH  019%=      5-min Rain = 0
KVA1 122318Z 22005KT 37/10 A2998 RMK A01 T03740100  RH  019%=      5-min Rain = 0
KVA1 122319Z 27006KT 37/10 A2998 RMK A01 T03740101  RH  019%=      5-min Rain = 0
KVA1 122320Z 29007KT 38/10 A2998 RMK A01 T03770102  RH  019%=      5-min Rain = 0
KVA1 122321Z 27005KT 38/10 A2998 RMK A01 T03790101  RH  019%=      5-min Rain = 0
KVA1 122322Z 27007G12KT 38/10 A2998 RMK A01 T03810100  RH  018%=      5-min Rain = 0
KVA1 122323Z 29009KT 38/10 A2998 RMK A01 T03790099  RH  018%=      5-min Rain = 0
KVA1 122324Z 27010KT 38/10 A2998 RMK A01 T03760098  RH  019%=      5-min Rain = 0
KVA1 122325Z 28009KT 38/10 A2998 RMK A01 T03770096  RH  018%=      5-min Rain = 0
KVA1 122326Z 29011KT 38/10 A2998 RMK A01 T03780100  RH  019%=      5-min Rain = 0
KVA1 122327Z 28009KT 38/10 A2998 RMK A01 T03760101  RH  019%=      5-min Rain = 0
KVA1 122328Z 28009KT 38/10 A2998 RMK A01 T03750101  RH  019%=      5-min Rain = 0
KVA1 122329Z 29009KT 38/10 A2998 RMK A01 T03750102  RH  019%=      5-min Rain = 0
KVA1 122330Z 27009KT 38/10 A2998 RMK A01 T03760101  RH  019%=      5-min Rain = 0
KVA1 122331Z 27009KT 38/10 A2998 RMK A01 T03760100  RH  019%=      5-min Rain = 0
KVA1 122332Z 30010KT 38/10 A2998 RMK A01 T03770101  RH  019%=      5-min Rain = 0
KVA1 122333Z 32010KT 38/10 A2998 RMK A01 T03770101  RH  019%=      5-min Rain = 0
KVA1 122334Z 32009KT 38/10 A2998 RMK A01 T03770101  RH  019%=      5-min Rain = 0
KVA1 122335Z 35011G16KT 38/10 A2998 RMK A01 T03790102  RH  019%=      5-min Rain = 0
KVA1 122336Z 35012KT 38/10 A2998 RMK A01 T03810101  RH  019%=      5-min Rain = 0
KVA1 122337Z 01007KT 38/10 A2998 RMK A01 T03790100  RH  019%=      5-min Rain = 0
KVA1 122338Z 36005KT 38/10 A2998 RMK A01 T03750100  RH  019%=      5-min Rain = 0
KVA1 122339Z 35007KT 38/10 A2998 RMK A01 T03760102  RH  019%=      5-min Rain = 0
KVA1 122340Z 36006KT 38/10 A2998 RMK A01 T03770100  RH  019%=      5-min Rain = 0
KVA1 122341Z 35008KT 38/10 A2998 RMK A01 T03750098  RH  019%=      5-min Rain = 0
KVA1 122342Z 33006KT 37/10 A2998 RMK A01 T03740097  RH  019%=      5-min Rain = 0
KVA1 122343Z 35005KT 37/10 A2998 RMK A01 T03720098  RH  019%=      5-min Rain = 0
KVA1 122344Z 33010KT 37/10 A2998 RMK A01 T03730099  RH  019%=      5-min Rain = 0
KVA1 122345Z 35009KT 38/10 A2998 RMK A01 T03750098  RH  019%=      5-min Rain = 0
KVA1 122346Z 34007KT 38/10 A2998 RMK A01 T03750099  RH  019%=      5-min Rain = 0
KVA1 122347Z 34007KT 37/10 A2998 RMK A01 T03730099  RH  019%=      5-min Rain = 0
KVA1 122348Z 35007KT 37/10 A2998 RMK A01 T03710098  RH  019%=      5-min Rain = 0
KVA1 122349Z 34005KT 37/10 A2998 RMK A01 T03700098  RH  019%=      5-min Rain = 0
KVA1 122350Z 34007KT 37/10 A2998 RMK A01 T03710099  RH  019%=      5-min Rain = 0
KVA1 122351Z 33008KT 37/10 A2998 RMK A01 T03730097  RH  019%=      5-min Rain = 0
KVA1 122352Z 32008KT 37/10 A2998 RMK A01 T03740101  RH  019%=      5-min Rain = 0
KVA1 122353Z 29006KT 37/10 A2998 RMK A01 T03740103  RH  020%=      5-min Rain = 0
KVA1 122354Z 29009KT 37/10 A2998 RMK A01 T03720102  RH  020%=      5-min Rain = 0
KVA1 122355Z 30010KT 37/10 A2998 RMK A01 T03680101  RH  020%=      5-min Rain = 0
KVA1 122356Z 29008KT 37/10 A2998 RMK A01 T03660101  RH  020%=      5-min Rain = 0
KVA1 122357Z 29008KT 37/10 A2998 RMK A01 T03650101  RH  020%=      5-min Rain = 0
KVA1 122358Z 30009KT 37/10 A2998 RMK A01 T03660100  RH  020%=      5-min Rain = 0
KVA1 122359Z 30007KT 37/10 A2998 RMK A01 T03660100  RH  020%=      5-min Rain = 0
KVA1 130000Z 30008KT 37/10 A2998 RMK A01 T03650100  RH  020%=      5-min Rain = 0
KVA1 130001Z 29006KT 37/10 A2998 RMK A01 T03650100  RH  020%=      5-min Rain = 0
KVA1 130002Z 29007KT 37/10 A2998 RMK A01 T03650100  RH  020%=      5-min Rain = 0
KVA1 130003Z 32007KT 37/10 A2998 RMK A01 T03690101  RH  020%=      5-min Rain = 0
KVA1 130004Z 32005KT 37/10 A2998 RMK A01 T03710099  RH  019%=      5-min Rain = 0
KVA1 130005Z 31009KT 37/10 A2998 RMK A01 T03720099  RH  019%=      5-min Rain = 0
KVA1 130006Z 31007KT 37/10 A2998 RMK A01 T03720098  RH  019%=      5-min Rain = 0
KVA1 130007Z 30007KT 37/10 A2998 RMK A01 T03720098  RH  019%=      5-min Rain = 0
KVA1 130008Z 29005KT 37/10 A2998 RMK A01 T03720098  RH  019%=      5-min Rain = 0
KVA1 130009Z 29006KT 37/10 A2998 RMK A01 T03730099  RH  019%=      5-min Rain = 0
KVA1 130010Z 30006KT 38/10 A2998 RMK A01 T03750100  RH  019%=      5-min Rain = 0
KVA1 130011Z 31005KT 38/10 A2998 RMK A01 T03750098  RH  019%=      5-min Rain = 0
KVA1 130012Z 29002KT 37/10 A2998 RMK A01 T03720097  RH  019%=      5-min Rain = 0
KVA1 130013Z 26001KT 37/10 A2998 RMK A01 T03720098  RH  019%=      5-min Rain = 0
KVA1 130014Z 32002KT 38/10 A2998 RMK A01 T03750099  RH  019%=      5-min Rain = 0
KVA1 130015Z 35006KT 38/10 A2998 RMK A01 T03760098  RH  019%=      5-min Rain = 0
KVA1 130016Z 35007KT 38/10 A2998 RMK A01 T03760097  RH  019%=      5-min Rain = 0
KVA1 130017Z 33005KT 37/10 A2998 RMK A01 T03740096  RH  019%=      5-min Rain = 0
KVA1 130018Z 34003KT 37/10 A2998 RMK A01 T03730096  RH  019%=      5-min Rain = 0
KVA1 130019Z 01003KT 37/10 A2998 RMK A01 T03730096  RH  019%=      5-min Rain = 0
KVA1 130020Z 05004KT 37/10 A2998 RMK A01 T03720096  RH  019%=      5-min Rain = 0
KVA1 130021Z 06003KT 37/09 A2998 RMK A01 T03710094  RH  019%=      5-min Rain = 0
KVA1 130022Z 14001KT 37/09 A2998 RMK A01 T03680093  RH  019%=      5-min Rain = 0
KVA1 130023Z 18001KT 37/09 A2998 RMK A01 T03670094  RH  019%=      5-min Rain = 0
KVA1 130024Z 26001KT 37/09 A2998 RMK A01 T03670094  RH  019%=      5-min Rain = 0
KVA1 130025Z 30003KT 37/09 A2998 RMK A01 T03670094  RH  019%=      5-min Rain = 0
KVA1 130026Z 32006KT 37/09 A2998 RMK A01 T03660094  RH  019%=      5-min Rain = 0
KVA1 130027Z 34006KT 37/09 A2998 RMK A01 T03650091  RH  019%=      5-min Rain = 0
KVA1 130028Z 34009KT 37/09 A2998 RMK A01 T03660089  RH  019%=      5-min Rain = 0
KVA1 130029Z 34009KT 37/09 A2998 RMK A01 T03650088  RH  019%=      5-min Rain = 0
KVA1 130030Z 33008KT 37/09 A2998 RMK A01 T03650089  RH  019%=      5-min Rain = 0
KVA1 130031Z 31008KT 37/09 A2998 RMK A01 T03650089  RH  019%=      5-min Rain = 0
KVA1 130032Z 29007KT 37/09 A2998 RMK A01 T03650088  RH  019%=      5-min Rain = 0
KVA1 130033Z 30008KT 37/09 A2998 RMK A01 T03650088  RH  019%=      5-min Rain = 0
KVA1 130034Z 30009KT 37/09 A2998 RMK A01 T03650088  RH  019%=      5-min Rain = 0
KVA1 130035Z 32007KT 37/09 A2998 RMK A01 T03670087  RH  018%=      5-min Rain = 0
KVA1 130036Z 32007KT 37/09 A2998 RMK A01 T03690086  RH  018%=      5-min Rain = 0
KVA1 130037Z 31008KT 37/09 A2998 RMK A01 T03700085  RH  018%=      5-min Rain = 0
KVA1 130038Z 31009KT 37/08 A2998 RMK A01 T03700084  RH  017%=      5-min Rain = 0
KVA1 130039Z 29007KT 37/08 A2998 RMK A01 T03700083  RH  017%=      5-min Rain = 0
KVA1 130040Z 30007G12KT 37/08 A2998 RMK A01 T03710084  RH  017%=      5-min Rain = 0
KVA1 130041Z 30009KT 37/08 A2998 RMK A01 T03720084  RH  017%=      5-min Rain = 0
KVA1 130042Z 30009KT 37/09 A2998 RMK A01 T03720086  RH  018%=      5-min Rain = 0
KVA1 130043Z 30011KT 37/09 A2998 RMK A01 T03720087  RH  018%=      5-min Rain = 0
KVA1 130044Z 31009KT 37/09 A2998 RMK A01 T03710089  RH  018%=      5-min Rain = 0
KVA1 130045Z 30007KT 37/09 A2998 RMK A01 T03700090  RH  018%=      5-min Rain = 0
KVA1 130046Z 30010KT 37/09 A2998 RMK A01 T03690089  RH  018%=      5-min Rain = 0
KVA1 130047Z 30009KT 37/09 A2998 RMK A01 T03680088  RH  018%=      5-min Rain = 0
KVA1 130048Z 30008KT 37/09 A2998 RMK A01 T03680088  RH  018%=      5-min Rain = 0
KVA1 130049Z 30009KT 37/09 A2998 RMK A01 T03680089  RH  018%=      5-min Rain = 0
KVA1 130050Z 30011KT 37/09 A2998 RMK A01 T03680089  RH  018%=      5-min Rain = 0
KVA1 130051Z 30008KT 37/09 A2998 RMK A01 T03680088  RH  018%=      5-min Rain = 0
KVA1 130052Z 30009KT 37/09 A2998 RMK A01 T03680088  RH  018%=      5-min Rain = 0
KVA1 130053Z 30010KT 37/09 A2998 RMK A01 T03680087  RH  018%=      5-min Rain = 0
KVA1 130054Z 30008KT 37/09 A2998 RMK A01 T03670088  RH  018%=      5-min Rain = 0
KVA1 130055Z 30007KT 37/09 A2998 RMK A01 T03670089  RH  018%=      5-min Rain = 0
KVA1 130056Z 31008KT 37/09 A2998 RMK A01 T03670089  RH  018%=      5-min Rain = 0
KVA1 130057Z 32009KT 37/09 A2998 RMK A01 T03670090  RH  019%=      5-min Rain = 0
KVA1 130058Z 29007KT 37/09 A2998 RMK A01 T03660091  RH  019%=      5-min Rain = 0
KVA1 130059Z 29010KT 36/09 A2999 RMK A01 T03640091  RH  019%=      5-min Rain = 0
KVA1 130100Z 29008KT 36/09 A2998 RMK A01 T03620091  RH  019%=      5-min Rain = 0
KVA1 130101Z 29007KT 36/09 A2998 RMK A01 T03610091  RH  019%=      5-min Rain = 0
KVA1 130102Z 29007KT 36/09 A2998 RMK A01 T03600091  RH  019%=      5-min Rain = 0
KVA1 130103Z 29007KT 36/09 A2998 RMK A01 T03590092  RH  020%=      5-min Rain = 0
KVA1 130104Z 29005KT 36/09 A2998 RMK A01 T03590092  RH  020%=      5-min Rain = 0
KVA1 130105Z 28006KT 36/09 A2998 RMK A01 T03590092  RH  020%=      5-min Rain = 0
KVA1 130106Z 28007KT 36/09 A2998 RMK A01 T03590092  RH  020%=      5-min Rain = 0
KVA1 130107Z 30006KT 36/09 A2998 RMK A01 T03590091  RH  020%=      5-min Rain = 0
KVA1 130108Z 31005KT 36/09 A2999 RMK A01 T03590091  RH  020%=      5-min Rain = 0
KVA1 130109Z 30006KT 36/09 A2999 RMK A01 T03590091  RH  020%=      5-min Rain = 0
KVA1 130110Z 28006KT 36/09 A2999 RMK A01 T03600091  RH  019%=      5-min Rain = 0
KVA1 130111Z 29005KT 36/09 A2999 RMK A01 T03600091  RH  019%=      5-min Rain = 0
KVA1 130112Z 29006KT 36/09 A2999 RMK A01 T03610092  RH  019%=      5-min Rain = 0
KVA1 130113Z 29006KT 36/09 A2999 RMK A01 T03610092  RH  019%=      5-min Rain = 0
KVA1 130114Z 29007KT 36/09 A2999 RMK A01 T03610092  RH  019%=      5-min Rain = 0
KVA1 130115Z 28006KT 36/09 A2999 RMK A01 T03600091  RH  019%=      5-min Rain = 0
KVA1 130116Z 29007KT 36/09 A2999 RMK A01 T03600092  RH  020%=      5-min Rain = 0
KVA1 130117Z 29007KT 36/09 A2999 RMK A01 T03590092  RH  020%=      5-min Rain = 0
KVA1 130118Z 29006KT 36/09 A2999 RMK A01 T03590091  RH  020%=      5-min Rain = 0
KVA1 130119Z 30007KT 36/09 A2999 RMK A01 T03590091  RH  020%=      5-min Rain = 0
KVA1 130120Z 30005KT 36/09 A2999 RMK A01 T03590091  RH  020%=      5-min Rain = 0
KVA1 130121Z 30005KT 36/09 A2999 RMK A01 T03580091  RH  020%=      5-min Rain = 0
KVA1 130122Z 30006KT 36/09 A2999 RMK A01 T03590091  RH  020%=      5-min Rain = 0
KVA1 130123Z 30006KT 36/09 A2999 RMK A01 T03580091  RH  020%=      5-min Rain = 0
KVA1 130124Z 30006KT 36/09 A2999 RMK A01 T03570091  RH  020%=      5-min Rain = 0
KVA1 130125Z 31006KT 36/09 A2999 RMK A01 T03570091  RH  020%=      5-min Rain = 0
KVA1 130126Z 31005KT 36/09 A2999 RMK A01 T03570091  RH  020%=      5-min Rain = 0
KVA1 130127Z 31003KT 36/09 A2999 RMK A01 T03560091  RH  020%=      5-min Rain = 0
KVA1 130128Z 30003KT 36/09 A2999 RMK A01 T03560091  RH  020%=      5-min Rain = 0
KVA1 130129Z 30004KT 36/09 A2999 RMK A01 T03560091  RH  020%=      5-min Rain = 0
KVA1 130130Z 30005KT 36/09 A2999 RMK A01 T03550090  RH  020%=      5-min Rain = 0
KVA1 130131Z 30006KT 35/09 A2999 RMK A01 T03540090  RH  020%=      5-min Rain = 0
KVA1 130132Z 30005KT 35/09 A2999 RMK A01 T03540090  RH  020%=      5-min Rain = 0
KVA1 130133Z 32004KT 35/09 A2999 RMK A01 T03540090  RH  020%=      5-min Rain = 0
KVA1 130134Z 33006KT 35/09 A2999 RMK A01 T03530090  RH  020%=      5-min Rain = 0
KVA1 130135Z 33006KT 35/09 A2999 RMK A01 T03530090  RH  020%=      5-min Rain = 0
KVA1 130136Z 33006KT 35/09 A2999 RMK A01 T03530090  RH  020%=      5-min Rain = 0
KVA1 130137Z 33004KT 35/09 A2999 RMK A01 T03530090  RH  020%=      5-min Rain = 0
KVA1 130138Z 33004KT 35/09 A30 RMK A01 T03520089  RH  020%=      5-min Rain = 0
KVA1 130139Z 33005KT 35/09 A30 RMK A01 T03520090  RH  020%=      5-min Rain = 0
KVA1 130140Z 32005KT 35/09 A30 RMK A01 T03510090  RH  020%=      5-min Rain = 0
KVA1 130141Z 33005KT 35/09 A30 RMK A01 T03510090  RH  020%=      5-min Rain = 0
KVA1 130142Z 32005KT 35/09 A30 RMK A01 T03500090  RH  020%=      5-min Rain = 0
KVA1 130143Z 32005KT 35/09 A30 RMK A01 T03490090  RH  020%=      5-min Rain = 0
KVA1 130144Z 32005KT 35/09 A30 RMK A01 T03490090  RH  021%=      5-min Rain = 0
KVA1 130145Z 32005KT 35/09 A30 RMK A01 T03480090  RH  021%=      5-min Rain = 0
KVA1 130146Z 33004KT 35/09 A30 RMK A01 T03470090  RH  021%=      5-min Rain = 0
KVA1 130147Z 32004KT 35/09 A30 RMK A01 T03470090  RH  021%=      5-min Rain = 0
KVA1 130148Z 32003KT 35/09 A30 RMK A01 T03460090  RH  021%=      5-min Rain = 0
KVA1 130149Z 32004KT 35/09 A30 RMK A01 T03450090  RH  021%=      5-min Rain = 0
KVA1 130150Z 32004KT 34/09 A30 RMK A01 T03440090  RH  021%=      5-min Rain = 0
KVA1 130151Z 31004KT 34/09 A30 RMK A01 T03440090  RH  021%=      5-min Rain = 0
KVA1 130152Z 30004KT 34/09 A30 RMK A01 T03430090  RH  021%=      5-min Rain = 0
KVA1 130153Z 30004KT 34/09 A30 RMK A01 T03420089  RH  021%=      5-min Rain = 0
KVA1 130154Z 30004KT 34/09 A30 RMK A01 T03410090  RH  021%=      5-min Rain = 0
KVA1 130155Z 30004KT 34/09 A30 RMK A01 T03410089  RH  021%=      5-min Rain = 0
KVA1 130156Z 30004KT 34/09 A30 RMK A01 T03410089  RH  021%=      5-min Rain = 0
KVA1 130157Z 30004KT 34/09 A30 RMK A01 T03400089  RH  021%=      5-min Rain = 0
KVA1 130158Z 30004KT 34/09 A30 RMK A01 T03390089  RH  022%=      5-min Rain = 0
KVA1 130159Z 30004KT 34/09 A30 RMK A01 T03380089  RH  022%=      5-min Rain = 0
KVA1 130200Z 30004KT 34/09 A30 RMK A01 T03380089  RH  022%=      5-min Rain = 0
KVA1 130201Z 30004KT 34/09 A30 RMK A01 T03370089  RH  022%=      5-min Rain = 0
KVA1 130202Z 30004KT 34/09 A30 RMK A01 T03370089  RH  022%=      5-min Rain = 0
KVA1 130203Z 29004KT 34/09 A30 RMK A01 T03360088  RH  022%=      5-min Rain = 0
KVA1 130204Z 30004KT 34/09 A30 RMK A01 T03360089  RH  022%=      5-min Rain = 0
KVA1 130205Z 30004KT 34/09 A30 RMK A01 T03350089  RH  022%=      5-min Rain = 0
KVA1 130206Z 30004KT 34/09 A30 RMK A01 T03350088  RH  022%=      5-min Rain = 0
KVA1 130207Z 30005KT 33/09 A30 RMK A01 T03340088  RH  022%=      5-min Rain = 0
KVA1 130208Z 30004KT 33/09 A30 RMK A01 T03340089  RH  022%=      5-min Rain = 0
KVA1 130209Z 31004KT 33/09 A30 RMK A01 T03340088  RH  022%=      5-min Rain = 0
KVA1 130210Z 31003KT 33/09 A30 RMK A01 T03330088  RH  022%=      5-min Rain = 0
KVA1 130211Z 31004KT 33/09 A30 RMK A01 T03320088  RH  022%=      5-min Rain = 0
KVA1 130212Z 30004KT 33/09 A30 RMK A01 T03310088  RH  022%=      5-min Rain = 0
KVA1 130213Z 30004KT 33/09 A30 RMK A01 T03310088  RH  022%=      5-min Rain = 0
KVA1 130214Z 30005KT 33/09 A30 RMK A01 T03300088  RH  022%=      5-min Rain = 0
KVA1 130215Z 31005KT 33/09 A3001 RMK A01 T03290088  RH  023%=      5-min Rain = 0
KVA1 130216Z 31004KT 33/09 A3001 RMK A01 T03290087  RH  023%=      5-min Rain = 0
KVA1 130217Z 31005KT 33/09 A3001 RMK A01 T03280088  RH  023%=      5-min Rain = 0
KVA1 130218Z 31005KT 33/09 A3001 RMK A01 T03280088  RH  023%=      5-min Rain = 0
KVA1 130219Z 31005KT 33/09 A3001 RMK A01 T03280087  RH  023%=      5-min Rain = 0
KVA1 130220Z 31006KT 33/09 A3001 RMK A01 T03280088  RH  023%=      5-min Rain = 0
KVA1 130221Z 31006KT 33/09 A3001 RMK A01 T03280088  RH  023%=      5-min Rain = 0
KVA1 130222Z 31006KT 33/09 A3001 RMK A01 T03280088  RH  023%=      5-min Rain = 0
KVA1 130223Z 31006KT 33/09 A3001 RMK A01 T03280088  RH  023%=      5-min Rain = 0
KVA1 130224Z 31005KT 33/09 A3001 RMK A01 T03280089  RH  023%=      5-min Rain = 0
KVA1 130225Z 31005KT 33/09 A3001 RMK A01 T03280089  RH  023%=      5-min Rain = 0
KVA1 130226Z 31004KT 33/09 A3001 RMK A01 T03290089  RH  023%=      5-min Rain = 0
KVA1 130227Z 31004KT 33/09 A3001 RMK A01 T03290090  RH  023%=      5-min Rain = 0
KVA1 130228Z 31004KT 33/09 A3001 RMK A01 T03280089  RH  023%=      5-min Rain = 0
KVA1 130229Z 31005KT 33/09 A3001 RMK A01 T03280090  RH  023%=      5-min Rain = 0
KVA1 130230Z 31005KT 33/09 A3001 RMK A01 T03270090  RH  023%=      5-min Rain = 0
KVA1 130231Z 31004KT 33/09 A3001 RMK A01 T03270090  RH  023%=      5-min Rain = 0
KVA1 130232Z 31004KT 33/09 A3001 RMK A01 T03270090  RH  023%=      5-min Rain = 0
KVA1 130233Z 31004KT 33/09 A3001 RMK A01 T03260090  RH  023%=      5-min Rain = 0
KVA1 130234Z 31004KT 33/09 A3001 RMK A01 T03260090  RH  023%=      5-min Rain = 0
KVA1 130235Z 31004KT 33/09 A3001 RMK A01 T03250090  RH  023%=      5-min Rain = 0
KVA1 130236Z 31004KT 32/09 A3001 RMK A01 T03240090  RH  023%=      5-min Rain = 0
KVA1 130237Z 31004KT 32/09 A3001 RMK A01 T03240090  RH  024%=      5-min Rain = 0
KVA1 130238Z 31004KT 32/09 A3001 RMK A01 T03230089  RH  024%=      5-min Rain = 0
KVA1 130239Z 30004KT 32/09 A3001 RMK A01 T03230090  RH  024%=      5-min Rain = 0
KVA1 130240Z 30004KT 32/09 A3001 RMK A01 T03230090  RH  024%=      5-min Rain = 0
KVA1 130241Z 30004KT 32/09 A3001 RMK A01 T03220090  RH  024%=      5-min Rain = 0
KVA1 130242Z 30004KT 32/09 A3001 RMK A01 T03220089  RH  024%=      5-min Rain = 0
KVA1 130243Z 30004KT 32/09 A3001 RMK A01 T03220089  RH  024%=      5-min Rain = 0
KVA1 130244Z 30005KT 32/09 A3001 RMK A01 T03220089  RH  024%=      5-min Rain = 0
KVA1 130245Z 30005KT 32/09 A3001 RMK A01 T03210089  RH  024%=      5-min Rain = 0
KVA1 130246Z 30004KT 32/09 A3002 RMK A01 T03210089  RH  024%=      5-min Rain = 0
KVA1 130247Z 31005KT 32/09 A3002 RMK A01 T03200088  RH  024%=      5-min Rain = 0
KVA1 130248Z 30005KT 32/09 A3002 RMK A01 T03200088  RH  024%=      5-min Rain = 0
KVA1 130249Z 30004KT 32/09 A3002 RMK A01 T03200088  RH  024%=      5-min Rain = 0
KVA1 130250Z 30005KT 32/09 A3002 RMK A01 T03200089  RH  024%=      5-min Rain = 0
KVA1 130251Z 29005KT 32/09 A3002 RMK A01 T03190088  RH  024%=      5-min Rain = 0
KVA1 130252Z 29005KT 32/09 A3002 RMK A01 T03190088  RH  024%=      5-min Rain = 0
KVA1 130253Z 29005KT 32/09 A3002 RMK A01 T03180088  RH  024%=      5-min Rain = 0
KVA1 130254Z 29004KT 32/09 A3002 RMK A01 T03170088  RH  024%=      5-min Rain = 0
KVA1 130255Z 28005KT 32/09 A3002 RMK A01 T03160087  RH  024%=      5-min Rain = 0
KVA1 130256Z 28005KT 32/09 A3002 RMK A01 T03160086  RH  024%=      5-min Rain = 0
KVA1 130257Z 27005KT 32/09 A3002 RMK A01 T03150086  RH  024%=      5-min Rain = 0
KVA1 130258Z 25006KT 32/09 A3002 RMK A01 T03150086  RH  024%=      5-min Rain = 0
KVA1 130259Z 26007KT 31/09 A3002 RMK A01 T03140086  RH  024%=      5-min Rain = 0
KVA1 130300Z 27006KT 31/09 A3002 RMK A01 T03140087  RH  024%=      5-min Rain = 0
KVA1 130301Z 26007KT 32/09 A3002 RMK A01 T03160089  RH  025%=      5-min Rain = 0
KVA1 130302Z 27006KT 32/09 A3002 RMK A01 T03170090  RH  025%=      5-min Rain = 0
KVA1 130303Z 27006KT 32/09 A3002 RMK A01 T03180091  RH  025%=      5-min Rain = 0
KVA1 130304Z 26006KT 32/09 A3002 RMK A01 T03190092  RH  025%=      5-min Rain = 0
KVA1 130305Z 26007KT 32/09 A3002 RMK A01 T03200092  RH  025%=      5-min Rain = 0
KVA1 130306Z 27006KT 32/09 A3002 RMK A01 T03200093  RH  025%=      5-min Rain = 0
KVA1 130307Z 27007KT 32/09 A3002 RMK A01 T03210094  RH  025%=      5-min Rain = 0
KVA1 130308Z 27007KT 32/09 A3002 RMK A01 T03220094  RH  025%=      5-min Rain = 0
KVA1 130309Z 27007KT 32/09 A3002 RMK A01 T03230094  RH  024%=      5-min Rain = 0
KVA1 130310Z 27006KT 32/09 A3002 RMK A01 T03230094  RH  024%=      5-min Rain = 0
KVA1 130311Z 27007KT 32/09 A3002 RMK A01 T03230094  RH  024%=      5-min Rain = 0
KVA1 130312Z 28007KT 32/09 A3002 RMK A01 T03230094  RH  024%=      5-min Rain = 0
KVA1 130313Z 28007KT 32/09 A3002 RMK A01 T03230094  RH  024%=      5-min Rain = 0
KVA1 130314Z 27007KT 32/10 A3002 RMK A01 T03230095  RH  024%=      5-min Rain = 0
KVA1 130315Z 27007KT 32/10 A3002 RMK A01 T03230095  RH  024%=      5-min Rain = 0
KVA1 130316Z 28006KT 32/10 A3002 RMK A01 T03240095  RH  024%=      5-min Rain = 0
KVA1 130317Z 28006KT 32/10 A3002 RMK A01 T03230095  RH  025%=      5-min Rain = 0
KVA1 130318Z 28006KT 32/10 A3002 RMK A01 T03240096  RH  025%=      5-min Rain = 0
KVA1 130319Z 28006KT 32/10 A3002 RMK A01 T03240096  RH  025%=      5-min Rain = 0
KVA1 130320Z 28006KT 32/10 A3002 RMK A01 T03240097  RH  025%=      5-min Rain = 0
KVA1 130321Z 27006KT 32/10 A3002 RMK A01 T03230097  RH  025%=      5-min Rain = 0
KVA1 130322Z 27008KT 32/10 A3003 RMK A01 T03230098  RH  025%=      5-min Rain = 0
KVA1 130323Z 27006KT 32/10 A3003 RMK A01 T03230098  RH  025%=      5-min Rain = 0
KVA1 130324Z 27007KT 32/10 A3003 RMK A01 T03230099  RH  025%=      5-min Rain = 0
KVA1 130325Z 27006KT 32/10 A3003 RMK A01 T03240100  RH  025%=      5-min Rain = 0
KVA1 130326Z 27007KT 32/10 A3003 RMK A01 T03240100  RH  025%=      5-min Rain = 0
KVA1 130327Z 27007KT 32/10 A3003 RMK A01 T03240100  RH  025%=      5-min Rain = 0
KVA1 130328Z 27007KT 32/10 A3003 RMK A01 T03240099  RH  025%=      5-min Rain = 0
KVA1 130329Z 27007KT 32/10 A3003 RMK A01 T03240099  RH  025%=      5-min Rain = 0
KVA1 130330Z 27007KT 32/10 A3003 RMK A01 T03240099  RH  025%=      5-min Rain = 0
KVA1 130331Z 27006KT 32/10 A3003 RMK A01 T03240100  RH  025%=      5-min Rain = 0
KVA1 130332Z 27006KT 32/10 A3003 RMK A01 T03230100  RH  025%=      5-min Rain = 0
KVA1 130333Z 27006KT 32/10 A3003 RMK A01 T03220100  RH  025%=      5-min Rain = 0
KVA1 130334Z 27006KT 32/10 A3003 RMK A01 T03220101  RH  026%=      5-min Rain = 0
KVA1 130335Z 27007KT 32/10 A3003 RMK A01 T03220101  RH  026%=      5-min Rain = 0
KVA1 130336Z 27006KT 32/10 A3003 RMK A01 T03210101  RH  026%=      5-min Rain = 0
KVA1 130337Z 27006KT 32/10 A3003 RMK A01 T03210102  RH  026%=      5-min Rain = 0
KVA1 130338Z 27006KT 32/10 A3003 RMK A01 T03210102  RH  026%=      5-min Rain = 0
KVA1 130339Z 27007KT 32/10 A3003 RMK A01 T03200103  RH  026%=      5-min Rain = 0
KVA1 130340Z 27006KT 32/10 A3003 RMK A01 T03200103  RH  026%=      5-min Rain = 0
KVA1 130341Z 27006KT 32/10 A3003 RMK A01 T03200103  RH  026%=      5-min Rain = 0
KVA1 130342Z 27007KT 32/10 A3003 RMK A01 T03200103  RH  026%=      5-min Rain = 0
KVA1 130343Z 27007KT 32/10 A3003 RMK A01 T03200104  RH  027%=      5-min Rain = 0
KVA1 130344Z 27007KT 32/11 A3003 RMK A01 T03200105  RH  027%=      5-min Rain = 0
KVA1 130345Z 27006KT 32/11 A3003 RMK A01 T03200105  RH  027%=      5-min Rain = 0
KVA1 130346Z 27007KT 32/11 A3003 RMK A01 T03200105  RH  027%=      5-min Rain = 0
KVA1 130347Z 27008KT 32/11 A3003 RMK A01 T03200106  RH  027%=      5-min Rain = 0
KVA1 130348Z 27007KT 32/11 A3003 RMK A01 T03200106  RH  027%=      5-min Rain = 0
KVA1 130349Z 27007KT 32/11 A3003 RMK A01 T03210107  RH  027%=      5-min Rain = 0
KVA1 130350Z 27008KT 32/11 A3003 RMK A01 T03210107  RH  027%=      5-min Rain = 0
KVA1 130351Z 27008KT 32/11 A3003 RMK A01 T03210107  RH  027%=      5-min Rain = 0
KVA1 130352Z 27007KT 32/11 A3003 RMK A01 T03210107  RH  027%=      5-min Rain = 0
KVA1 130353Z 28008KT 32/11 A3003 RMK A01 T03210107  RH  027%=      5-min Rain = 0
KVA1 130354Z 28007KT 32/11 A3003 RMK A01 T03210107  RH  027%=      5-min Rain = 0
KVA1 130355Z 27007KT 32/11 A3003 RMK A01 T03210108  RH  027%=      5-min Rain = 0
KVA1 130356Z 27007KT 32/11 A3003 RMK A01 T03200107  RH  027%=      5-min Rain = 0
KVA1 130357Z 28008KT 32/11 A3003 RMK A01 T03200108  RH  027%=      5-min Rain = 0
KVA1 130358Z 28007KT 32/11 A3003 RMK A01 T03200108  RH  027%=      5-min Rain = 0
KVA1 130359Z 28008KT 32/11 A3003 RMK A01 T03200108  RH  027%=      5-min Rain = 0
KVA1 130400Z 28006KT 32/11 A3003 RMK A01 T03200108  RH  027%=      5-min Rain = 0
KVA1 130401Z 28007KT 32/11 A3003 RMK A01 T03200108  RH  027%=      5-min Rain = 0
KVA1 130402Z 28007KT 32/11 A3003 RMK A01 T03190108  RH  027%=      5-min Rain = 0
KVA1 130403Z 28008KT 32/11 A3003 RMK A01 T03190108  RH  027%=      5-min Rain = 0
KVA1 130404Z 28007KT 32/11 A3003 RMK A01 T03190108  RH  027%=      5-min Rain = 0
KVA1 130405Z 28007KT 32/11 A3003 RMK A01 T03190108  RH  027%=      5-min Rain = 0
KVA1 130406Z 28007KT 32/11 A3003 RMK A01 T03180108  RH  027%=      5-min Rain = 0
KVA1 130407Z 28007KT 32/11 A3003 RMK A01 T03180108  RH  027%=      5-min Rain = 0
KVA1 130408Z 28007KT 32/11 A3003 RMK A01 T03180107  RH  027%=      5-min Rain = 0
KVA1 130409Z 28008KT 32/11 A3003 RMK A01 T03180108  RH  027%=      5-min Rain = 0
KVA1 130410Z 28008KT 32/11 A3003 RMK A01 T03180107  RH  027%=      5-min Rain = 0
KVA1 130411Z 29007KT 32/11 A3004 RMK A01 T03180107  RH  027%=      5-min Rain = 0
KVA1 130412Z 29007KT 32/11 A3004 RMK A01 T03180107  RH  027%=      5-min Rain = 0
KVA1 130413Z 28008KT 32/11 A3004 RMK A01 T03170107  RH  027%=      5-min Rain = 0
KVA1 130414Z 29007KT 32/11 A3004 RMK A01 T03170107  RH  027%=      5-min Rain = 0
KVA1 130415Z 29008KT 32/11 A3004 RMK A01 T03170107  RH  027%=      5-min Rain = 0
KVA1 130416Z 29007KT 32/11 A3004 RMK A01 T03170107  RH  027%=      5-min Rain = 0
KVA1 130417Z 29007KT 32/11 A3004 RMK A01 T03170107  RH  028%=      5-min Rain = 0
KVA1 130418Z 28007KT 32/11 A3004 RMK A01 T03160107  RH  028%=      5-min Rain = 0
KVA1 130419Z 28007KT 32/11 A3004 RMK A01 T03150106  RH  028%=      5-min Rain = 0
KVA1 130420Z 29007KT 32/11 A3004 RMK A01 T03150107  RH  028%=      5-min Rain = 0
KVA1 130421Z 29007KT 32/11 A3004 RMK A01 T03160107  RH  028%=      5-min Rain = 0
KVA1 130422Z 28007KT 32/11 A3004 RMK A01 T03150107  RH  028%=      5-min Rain = 0
KVA1 130423Z 29008KT 32/11 A3004 RMK A01 T03150107  RH  028%=      5-min Rain = 0
KVA1 130424Z 28007KT 32/11 A3003 RMK A01 T03150107  RH  028%=      5-min Rain = 0
KVA1 130425Z 28007KT 32/11 A3003 RMK A01 T03150107  RH  028%=      5-min Rain = 0
KVA1 130426Z 28007KT 32/11 A3003 RMK A01 T03150106  RH  028%=      5-min Rain = 0
KVA1 130427Z 29007KT 32/11 A3003 RMK A01 T03150107  RH  028%=      5-min Rain = 0
KVA1 130428Z 29007KT 32/11 A3003 RMK A01 T03160106  RH  028%=      5-min Rain = 0
KVA1 130429Z 28007KT 32/11 A3003 RMK A01 T03150106  RH  028%=      5-min Rain = 0
KVA1 130430Z 29008KT 32/11 A3003 RMK A01 T03160106  RH  028%=      5-min Rain = 0
KVA1 130431Z 28007KT 32/11 A3003 RMK A01 T03170106  RH  027%=      5-min Rain = 0
KVA1 130432Z 28008KT 32/11 A3003 RMK A01 T03170106  RH  027%=      5-min Rain = 0
KVA1 130433Z 29007KT 32/11 A3003 RMK A01 T03170106  RH  027%=      5-min Rain = 0
KVA1 130434Z 29007KT 32/11 A3003 RMK A01 T03170106  RH  027%=      5-min Rain = 0
KVA1 130435Z 29007KT 32/11 A3003 RMK A01 T03170106  RH  027%=      5-min Rain = 0
KVA1 130436Z 28009KT 32/11 A3004 RMK A01 T03170106  RH  027%=      5-min Rain = 0
KVA1 130437Z 28009KT 32/11 A3004 RMK A01 T03170106  RH  027%=      5-min Rain = 0
KVA1 130438Z 28008KT 32/11 A3004 RMK A01 T03170105  RH  027%=      5-min Rain = 0
KVA1 130439Z 28007KT 32/11 A3004 RMK A01 T03170106  RH  027%=      5-min Rain = 0
KVA1 130440Z 28008KT 32/11 A3004 RMK A01 T03170105  RH  027%=      5-min Rain = 0
KVA1 130441Z 28008KT 32/11 A3004 RMK A01 T03170105  RH  027%=      5-min Rain = 0
KVA1 130442Z 28008KT 32/11 A3004 RMK A01 T03170105  RH  027%=      5-min Rain = 0
KVA1 130443Z 28008KT 32/11 A3004 RMK A01 T03170105  RH  027%=      5-min Rain = 0
KVA1 130444Z 28009KT 32/11 A3004 RMK A01 T03160105  RH  027%=      5-min Rain = 0
KVA1 130445Z 28008KT 32/11 A3004 RMK A01 T03160105  RH  027%=      5-min Rain = 0
KVA1 130446Z 28009KT 32/11 A3004 RMK A01 T03160105  RH  027%=      5-min Rain = 0
KVA1 130447Z 28008KT 32/11 A3004 RMK A01 T03150105  RH  027%=      5-min Rain = 0
KVA1 130448Z 28007KT 32/11 A3004 RMK A01 T03160105  RH  027%=      5-min Rain = 0
KVA1 130449Z 27008KT 32/10 A3004 RMK A01 T03150104  RH  027%=      5-min Rain = 0
KVA1 130450Z 28008KT 32/10 A3004 RMK A01 T03150104  RH  027%=      5-min Rain = 0
KVA1 130451Z 28009KT 32/10 A3004 RMK A01 T03150104  RH  027%=      5-min Rain = 0
KVA1 130452Z 27009KT 32/10 A3004 RMK A01 T03150104  RH  027%=      5-min Rain = 0
KVA1 130453Z 28008KT 32/11 A3004 RMK A01 T03160105  RH  027%=      5-min Rain = 0
KVA1 130454Z 28008KT 32/10 A3004 RMK A01 T03160104  RH  027%=      5-min Rain = 0
KVA1 130455Z 27008KT 32/10 A3004 RMK A01 T03160104  RH  027%=      5-min Rain = 0
KVA1 130456Z 28008KT 32/10 A3003 RMK A01 T03160104  RH  027%=      5-min Rain = 0
KVA1 130457Z 28009KT 32/10 A3003 RMK A01 T03160104  RH  027%=      5-min Rain = 0
KVA1 130458Z 28009KT 32/10 A3003 RMK A01 T03160104  RH  027%=      5-min Rain = 0
KVA1 130459Z 28010KT 32/10 A3003 RMK A01 T03160104  RH  027%=      5-min Rain = 0

Page generated in 0.0823 seconds.